PWSweather.com
Personal Weather Stations
Station Observations
WOODBURYWX
Lighthouse Rd, Woodbury, Woodbury, CT 06798

Lighthouse Rd, WoodburyWoodbury, CT 06798

Lat: 41.553333, Lon: -73.224167

Elevation: 437

Station Type: Ambient Weather WS-1090

Latest ConditionsUpdated 10:03:00 AM EST Sunday, Mar 1, 2015
Currently Today's Max Today's Min Today's Average
Temperature 18.0°F-7.8°C 18.5°F-7.5°C 2.3°F-16.5°C 7.1°F-13.8°C
Dew Point -0.8°F-18.2°C -0.8°F-18.2°C -9.8°F-23.2°C -6.9°F-21.6°C
Winds 0.8 mph SSE1.3 kmh SSE 2.2 mph S3.5 kmh S - 0.2 mph 0.3 kmh
Wind Gusts 2.6 mph4.2 kmh 2.6 mph4.2 kmh - -
Humidity 43% 57% 38% 52%
Pressure 30.63 in1037.3 mb 30.76 in1041.7 mb 30.62 in1036.9 mb -
Hour Temp Dew Point Humidity Winds Wind Gusts Pressure Precip Precip Rate Daily Precip Total
10:03 AM 18.0°F-7.8°C -0.8°F-18.2°C 43% 0.8 mph SSE1.3 kmh SSE 2.6 mph4.2 kmh 30.63 in1037.3 mb 0.00 in0.0 mm 0.00 in/hr0.0 mm/hr 0.00 in0.0 mm
10:02 AM 18.0°F-7.8°C -0.8°F-18.2°C 43% 0.9 mph SE1.4 kmh SE 2.6 mph4.2 kmh 30.63 in1037.3 mb 0.00 in0.0 mm 0.00 in/hr0.0 mm/hr 0.00 in0.0 mm
10:01 AM 18.5°F-7.5°C -0.8°F-18.2°C 42% 0.9 mph SE1.4 kmh SE 2.6 mph4.2 kmh 30.63 in1037.3 mb 0.00 in0.0 mm 0.00 in/hr0.0 mm/hr 0.00 in0.0 mm
10:00 AM 18.3°F-7.6°C -1.5°F-18.6°C 41% 1.0 mph SE1.6 kmh SE 2.6 mph4.2 kmh 30.63 in1037.3 mb 0.00 in0.0 mm 0.00 in/hr0.0 mm/hr 0.00 in0.0 mm
09:59 AM 18.5°F-7.5°C -1.3°F-18.5°C 41% 1.1 mph SE1.8 kmh SE 2.6 mph4.2 kmh 30.63 in1037.3 mb 0.00 in0.0 mm 0.00 in/hr0.0 mm/hr 0.00 in0.0 mm
09:58 AM 18.3°F-7.6°C -2.0°F-18.9°C 40% 1.3 mph SE2.1 kmh SE 2.6 mph4.2 kmh 30.62 in1036.9 mb 0.00 in0.0 mm 0.00 in/hr0.0 mm/hr 0.00 in0.0 mm
09:57 AM 18.0°F-7.8°C -2.3°F-19.1°C 40% 1.4 mph SE2.3 kmh SE 2.6 mph4.2 kmh 30.63 in1037.3 mb 0.00 in0.0 mm 0.00 in/hr0.0 mm/hr 0.00 in0.0 mm
09:56 AM 18.0°F-7.8°C -2.3°F-19.1°C 40% 1.4 mph SE2.3 kmh SE 2.6 mph4.2 kmh 30.63 in1037.3 mb 0.00 in0.0 mm 0.00 in/hr0.0 mm/hr 0.00 in0.0 mm
09:55 AM 18.1°F-7.7°C -2.7°F-19.3°C 39% 1.2 mph SE1.9 kmh SE 2.6 mph4.2 kmh 30.63 in1037.3 mb 0.00 in0.0 mm 0.00 in/hr0.0 mm/hr 0.00 in0.0 mm
09:54 AM 18.1°F-7.7°C -2.7°F-19.3°C 39% 1.0 mph SE1.6 kmh SE 1.7 mph2.7 kmh 30.62 in1036.9 mb 0.00 in0.0 mm 0.00 in/hr0.0 mm/hr 0.00 in0.0 mm
09:53 AM 18.1°F-7.7°C -2.7°F-19.3°C 39% 1.0 mph SSE1.6 kmh SSE 1.7 mph2.7 kmh 30.63 in1037.3 mb 0.00 in0.0 mm 0.00 in/hr0.0 mm/hr 0.00 in0.0 mm
09:52 AM 18.1°F-7.7°C -2.7°F-19.3°C 39% 1.0 mph S1.6 kmh S 1.7 mph2.7 kmh 30.63 in1037.3 mb 0.00 in0.0 mm 0.00 in/hr0.0 mm/hr 0.00 in0.0 mm
09:51 AM 18.1°F-7.7°C -2.7°F-19.3°C 39% 1.0 mph S1.6 kmh S 1.7 mph2.7 kmh 30.62 in1036.9 mb 0.00 in0.0 mm 0.00 in/hr0.0 mm/hr 0.00 in0.0 mm
09:50 AM 18.1°F-7.7°C -2.7°F-19.3°C 39% 1.2 mph S1.9 kmh S 1.7 mph2.7 kmh 30.63 in1037.3 mb 0.00 in0.0 mm 0.00 in/hr0.0 mm/hr 0.00 in0.0 mm
09:49 AM 18.5°F-7.5°C -2.4°F-19.1°C 39% 1.2 mph S1.9 kmh S 2.6 mph4.2 kmh 30.62 in1036.9 mb 0.00 in0.0 mm 0.00 in/hr0.0 mm/hr 0.00 in0.0 mm
09:48 AM 18.3°F-7.6°C -2.5°F-19.2°C 39% 1.2 mph S1.9 kmh S 2.6 mph4.2 kmh 30.63 in1037.3 mb 0.00 in0.0 mm 0.00 in/hr0.0 mm/hr 0.00 in0.0 mm
09:47 AM 18.3°F-7.6°C -2.5°F-19.2°C 39% 1.3 mph S2.1 kmh S 2.6 mph4.2 kmh 30.62 in1036.9 mb 0.00 in0.0 mm 0.00 in/hr0.0 mm/hr 0.00 in0.0 mm
09:46 AM 18.3°F-7.6°C -3.1°F-19.5°C 38% 1.4 mph S2.3 kmh S 2.6 mph4.2 kmh 30.63 in1037.3 mb 0.00 in0.0 mm 0.00 in/hr0.0 mm/hr 0.00 in0.0 mm
09:45 AM 18.3°F-7.6°C -3.1°F-19.5°C 38% 1.6 mph S2.6 kmh S 2.6 mph4.2 kmh 30.62 in1036.9 mb 0.00 in0.0 mm 0.00 in/hr0.0 mm/hr 0.00 in0.0 mm
09:44 AM 18.3°F-7.6°C -3.1°F-19.5°C 38% 1.8 mph S2.9 kmh S 2.6 mph4.2 kmh 30.63 in1037.3 mb 0.00 in0.0 mm 0.00 in/hr0.0 mm/hr 0.00 in0.0 mm
09:43 AM 18.3°F-7.6°C -3.1°F-19.5°C 38% 1.9 mph S3.1 kmh S 2.6 mph4.2 kmh 30.64 in1037.6 mb 0.00 in0.0 mm 0.00 in/hr0.0 mm/hr 0.00 in0.0 mm
09:42 AM 18.1°F-7.7°C -3.3°F-19.6°C 38% 1.9 mph S3.1 kmh S 2.6 mph4.2 kmh 30.63 in1037.3 mb 0.00 in0.0 mm 0.00 in/hr0.0 mm/hr 0.00 in0.0 mm
09:41 AM 17.8°F-7.9°C -3.6°F-19.8°C 38% 2.1 mph S3.4 kmh S 2.6 mph4.2 kmh 30.63 in1037.3 mb 0.00 in0.0 mm 0.00 in/hr0.0 mm/hr 0.00 in0.0 mm
09:40 AM 17.8°F-7.9°C -3.6°F-19.8°C 38% 2.2 mph S3.5 kmh S 2.6 mph4.2 kmh 30.63 in1037.3 mb 0.00 in0.0 mm 0.00 in/hr0.0 mm/hr 0.00 in0.0 mm
09:39 AM 17.6°F-8.0°C -3.7°F-19.8°C 38% 2.1 mph S3.4 kmh S 2.6 mph4.2 kmh 30.62 in1036.9 mb 0.00 in0.0 mm 0.00 in/hr0.0 mm/hr 0.00 in0.0 mm
09:38 AM 17.4°F-8.1°C -2.8°F-19.3°C 40% 2.2 mph S3.5 kmh S 2.6 mph4.2 kmh 30.62 in1036.9 mb 0.00 in0.0 mm 0.00 in/hr0.0 mm/hr 0.00 in0.0 mm
09:37 AM 17.4°F-8.1°C -2.8°F-19.3°C 40% 2.1 mph S3.4 kmh S 2.6 mph4.2 kmh 30.63 in1037.3 mb 0.00 in0.0 mm 0.00 in/hr0.0 mm/hr 0.00 in0.0 mm
09:36 AM 17.4°F-8.1°C -2.8°F-19.3°C 40% 2.0 mph S3.2 kmh S 2.6 mph4.2 kmh 30.63 in1037.3 mb 0.00 in0.0 mm 0.00 in/hr0.0 mm/hr 0.00 in0.0 mm
09:35 AM 17.2°F-8.2°C -3.0°F-19.4°C 40% 2.0 mph S3.2 kmh S 2.6 mph4.2 kmh 30.63 in1037.3 mb 0.00 in0.0 mm 0.00 in/hr0.0 mm/hr 0.00 in0.0 mm
09:34 AM 17.2°F-8.2°C -3.0°F-19.4°C 40% 2.0 mph S3.2 kmh S 2.6 mph4.2 kmh 30.63 in1037.3 mb 0.00 in0.0 mm 0.00 in/hr0.0 mm/hr 0.00 in0.0 mm
09:33 AM 17.2°F-8.2°C -2.5°F-19.2°C 41% 2.0 mph S3.2 kmh S 2.6 mph4.2 kmh 30.62 in1036.9 mb 0.00 in0.0 mm 0.00 in/hr0.0 mm/hr 0.00 in0.0 mm
09:32 AM 17.2°F-8.2°C -2.5°F-19.2°C 41% 1.9 mph S3.1 kmh S 2.6 mph4.2 kmh 30.62 in1036.9 mb 0.00 in0.0 mm 0.00 in/hr0.0 mm/hr 0.00 in0.0 mm
09:31 AM 17.1°F-8.3°C -2.6°F-19.2°C 41% 1.9 mph S3.1 kmh S 2.6 mph4.2 kmh 30.62 in1036.9 mb 0.00 in0.0 mm 0.00 in/hr0.0 mm/hr 0.00 in0.0 mm
09:30 AM 17.1°F-8.3°C -2.6°F-19.2°C 41% 2.0 mph S3.2 kmh S 2.6 mph4.2 kmh 30.62 in1036.9 mb 0.00 in0.0 mm 0.00 in/hr0.0 mm/hr 0.00 in0.0 mm
09:29 AM 16.9°F-8.4°C -2.3°F-19.1°C 42% 2.0 mph S3.2 kmh S 2.6 mph4.2 kmh 30.62 in1036.9 mb 0.00 in0.0 mm 0.00 in/hr0.0 mm/hr 0.00 in0.0 mm
09:28 AM 16.7°F-8.5°C -3.0°F-19.4°C 41% 1.9 mph S3.1 kmh S 2.6 mph4.2 kmh 30.63 in1037.3 mb 0.00 in0.0 mm 0.00 in/hr0.0 mm/hr 0.00 in0.0 mm
09:27 AM 16.7°F-8.5°C -2.5°F-19.2°C 42% 1.7 mph S2.7 kmh S 2.6 mph4.2 kmh 30.62 in1036.9 mb 0.00 in0.0 mm 0.00 in/hr0.0 mm/hr 0.00 in0.0 mm
09:26 AM 16.7°F-8.5°C -2.5°F-19.2°C 42% 1.8 mph S2.9 kmh S 2.6 mph4.2 kmh 30.62 in1036.9 mb 0.00 in0.0 mm 0.00 in/hr0.0 mm/hr 0.00 in0.0 mm
09:25 AM 16.5°F-8.6°C -2.6°F-19.2°C 42% 1.8 mph S2.9 kmh S 2.6 mph4.2 kmh 30.62 in1036.9 mb 0.00 in0.0 mm 0.00 in/hr0.0 mm/hr 0.00 in0.0 mm
09:24 AM 16.5°F-8.6°C -2.6°F-19.2°C 42% 1.8 mph S2.9 kmh S 2.6 mph4.2 kmh 30.62 in1036.9 mb 0.00 in0.0 mm 0.00 in/hr0.0 mm/hr 0.00 in0.0 mm
09:23 AM 16.5°F-8.6°C -2.6°F-19.2°C 42% 1.9 mph S3.1 kmh S 2.6 mph4.2 kmh 30.62 in1036.9 mb 0.00 in0.0 mm 0.00 in/hr0.0 mm/hr 0.00 in0.0 mm
09:22 AM 16.3°F-8.7°C -2.8°F-19.3°C 42% 2.1 mph S3.4 kmh S 2.6 mph4.2 kmh 30.63 in1037.3 mb 0.00 in0.0 mm 0.00 in/hr0.0 mm/hr 0.00 in0.0 mm
09:21 AM 16.5°F-8.6°C -2.6°F-19.2°C 42% 2.0 mph S3.2 kmh S 2.6 mph4.2 kmh 30.63 in1037.3 mb 0.00 in0.0 mm 0.00 in/hr0.0 mm/hr 0.00 in0.0 mm
09:20 AM 16.3°F-8.7°C -2.3°F-19.1°C 43% 1.8 mph S2.9 kmh S 2.6 mph4.2 kmh 30.62 in1036.9 mb 0.00 in0.0 mm 0.00 in/hr0.0 mm/hr 0.00 in0.0 mm
09:19 AM 16.3°F-8.7°C -2.3°F-19.1°C 43% 1.6 mph S2.6 kmh S 2.6 mph4.2 kmh 30.63 in1037.3 mb 0.00 in0.0 mm 0.00 in/hr0.0 mm/hr 0.00 in0.0 mm
09:18 AM 16.3°F-8.7°C -2.3°F-19.1°C 43% 1.5 mph S2.4 kmh S 2.6 mph4.2 kmh 30.63 in1037.3 mb 0.00 in0.0 mm 0.00 in/hr0.0 mm/hr 0.00 in0.0 mm
09:17 AM 16.2°F-8.8°C -2.5°F-19.2°C 43% 1.5 mph S2.4 kmh S 2.6 mph4.2 kmh 30.63 in1037.3 mb 0.00 in0.0 mm 0.00 in/hr0.0 mm/hr 0.00 in0.0 mm
09:16 AM 16.0°F-8.9°C -3.1°F-19.5°C 42% 1.2 mph S1.9 kmh S 2.6 mph4.2 kmh 30.63 in1037.3 mb 0.00 in0.0 mm 0.00 in/hr0.0 mm/hr 0.00 in0.0 mm
09:15 AM 16.0°F-8.9°C -3.1°F-19.5°C 42% 1.0 mph S1.6 kmh S 2.6 mph4.2 kmh 30.64 in1037.6 mb 0.00 in0.0 mm 0.00 in/hr0.0 mm/hr 0.00 in0.0 mm
09:14 AM 15.8°F-9.0°C -3.3°F-19.6°C 42% 0.8 mph SSW1.3 kmh SSW 2.6 mph4.2 kmh 30.63 in1037.3 mb 0.00 in0.0 mm 0.00 in/hr0.0 mm/hr 0.00 in0.0 mm
09:13 AM 15.6°F-9.1°C -2.9°F-19.4°C 43% 0.5 mph SSW0.8 kmh SSW 2.6 mph4.2 kmh 30.63 in1037.3 mb 0.00 in0.0 mm 0.00 in/hr0.0 mm/hr 0.00 in0.0 mm
09:12 AM 15.6°F-9.1°C -2.9°F-19.4°C 43% 0.2 mph S0.3 kmh S 1.7 mph2.7 kmh 30.63 in1037.3 mb 0.00 in0.0 mm 0.00 in/hr0.0 mm/hr 0.00 in0.0 mm
09:11 AM 15.4°F-9.2°C -3.1°F-19.5°C 43% 0.1 mph S0.2 kmh S 1.7 mph2.7 kmh 30.63 in1037.3 mb 0.00 in0.0 mm 0.00 in/hr0.0 mm/hr 0.00 in0.0 mm
09:10 AM 15.4°F-9.2°C -3.1°F-19.5°C 43% Calm Calm -- 30.63 in1037.3 mb 0.00 in0.0 mm 0.00 in/hr0.0 mm/hr 0.00 in0.0 mm
09:09 AM 15.3°F-9.3°C -2.8°F-19.3°C 44% Calm Calm -- 30.63 in1037.3 mb 0.00 in0.0 mm 0.00 in/hr0.0 mm/hr 0.00 in0.0 mm
09:08 AM 15.3°F-9.3°C -2.8°F-19.3°C 44% Calm Calm -- 30.64 in1037.6 mb 0.00 in0.0 mm 0.00 in/hr0.0 mm/hr 0.00 in0.0 mm
09:07 AM 15.3°F-9.3°C -2.8°F-19.3°C 44% Calm Calm -- 30.64 in1037.6 mb 0.00 in0.0 mm 0.00 in/hr0.0 mm/hr 0.00 in0.0 mm
09:06 AM 15.3°F-9.3°C -2.8°F-19.3°C 44% Calm Calm -- 30.64 in1037.6 mb 0.00 in0.0 mm 0.00 in/hr0.0 mm/hr 0.00 in0.0 mm
09:05 AM 15.3°F-9.3°C -2.8°F-19.3°C 44% Calm Calm -- 30.64 in1037.6 mb 0.00 in0.0 mm 0.00 in/hr0.0 mm/hr 0.00 in0.0 mm
09:04 AM 15.3°F-9.3°C -2.8°F-19.3°C 44% Calm Calm -- 30.64 in1037.6 mb 0.00 in0.0 mm 0.00 in/hr0.0 mm/hr 0.00 in0.0 mm
09:03 AM 15.3°F-9.3°C -2.8°F-19.3°C 44% Calm Calm -- 30.64 in1037.6 mb 0.00 in0.0 mm 0.00 in/hr0.0 mm/hr 0.00 in0.0 mm
09:02 AM 15.3°F-9.3°C -2.8°F-19.3°C 44% Calm Calm -- 30.64 in1037.6 mb 0.00 in0.0 mm 0.00 in/hr0.0 mm/hr 0.00 in0.0 mm
09:01 AM 15.3°F-9.3°C -2.8°F-19.3°C 44% Calm Calm -- 30.64 in1037.6 mb 0.00 in0.0 mm 0.00 in/hr0.0 mm/hr 0.00 in0.0 mm
09:00 AM 15.3°F-9.3°C -2.8°F-19.3°C 44% Calm Calm -- 30.64 in1037.6 mb 0.00 in0.0 mm 0.00 in/hr0.0 mm/hr 0.00 in0.0 mm
08:59 AM 15.4°F-9.2°C -2.6°F-19.2°C 44% Calm Calm -- 30.64 in1037.6 mb 0.00 in0.0 mm 0.00 in/hr0.0 mm/hr 0.00 in0.0 mm
08:58 AM 15.3°F-9.3°C -2.8°F-19.3°C 44% 0.1 mph S0.2 kmh S 0.9 mph1.4 kmh 30.64 in1037.6 mb 0.00 in0.0 mm 0.00 in/hr0.0 mm/hr 0.00 in0.0 mm
08:57 AM 15.1°F-9.4°C -3.0°F-19.4°C 44% 0.2 mph S0.3 kmh S 1.7 mph2.7 kmh 30.64 in1037.6 mb 0.00 in0.0 mm 0.00 in/hr0.0 mm/hr 0.00 in0.0 mm
08:56 AM 15.1°F-9.4°C -2.5°F-19.2°C 45% 0.4 mph S0.6 kmh S 1.7 mph2.7 kmh 30.64 in1037.6 mb 0.00 in0.0 mm 0.00 in/hr0.0 mm/hr 0.00 in0.0 mm
08:55 AM 15.1°F-9.4°C -2.5°F-19.2°C 45% 0.5 mph S0.8 kmh S 1.7 mph2.7 kmh 30.65 in1037.9 mb 0.00 in0.0 mm 0.00 in/hr0.0 mm/hr 0.00 in0.0 mm
08:54 AM 15.3°F-9.3°C -2.3°F-19.1°C 45% 0.7 mph S1.1 kmh S 1.7 mph2.7 kmh 30.64 in1037.6 mb 0.00 in0.0 mm 0.00 in/hr0.0 mm/hr 0.00 in0.0 mm
08:53 AM 14.9°F-9.5°C -2.6°F-19.2°C 45% 0.9 mph S1.4 kmh S 1.7 mph2.7 kmh 30.64 in1037.6 mb 0.00 in0.0 mm 0.00 in/hr0.0 mm/hr 0.00 in0.0 mm
08:52 AM 14.7°F-9.6°C -2.8°F-19.3°C 45% 1.1 mph S1.8 kmh S 2.6 mph4.2 kmh 30.65 in1037.9 mb 0.00 in0.0 mm 0.00 in/hr0.0 mm/hr 0.00 in0.0 mm
08:51 AM 14.7°F-9.6°C -2.8°F-19.3°C 45% 1.3 mph S2.1 kmh S 2.6 mph4.2 kmh 30.65 in1037.9 mb 0.00 in0.0 mm 0.00 in/hr0.0 mm/hr 0.00 in0.0 mm
08:50 AM 14.5°F-9.7°C -3.0°F-19.4°C 45% 1.6 mph S2.6 kmh S 2.6 mph4.2 kmh 30.65 in1037.9 mb 0.00 in0.0 mm 0.00 in/hr0.0 mm/hr 0.00 in0.0 mm
08:49 AM 14.4°F-9.8°C -3.1°F-19.5°C 45% 1.7 mph S2.7 kmh S 2.6 mph4.2 kmh 30.65 in1037.9 mb 0.00 in0.0 mm 0.00 in/hr0.0 mm/hr 0.00 in0.0 mm
08:48 AM 14.2°F-9.9°C -3.3°F-19.6°C 45% 1.7 mph S2.7 kmh S 2.6 mph4.2 kmh 30.65 in1037.9 mb 0.00 in0.0 mm 0.00 in/hr0.0 mm/hr 0.00 in0.0 mm
08:47 AM 14.2°F-9.9°C -3.8°F-19.9°C 44% 1.5 mph S2.4 kmh S 2.6 mph4.2 kmh 30.65 in1037.9 mb 0.00 in0.0 mm 0.00 in/hr0.0 mm/hr 0.00 in0.0 mm
08:46 AM 14.2°F-9.9°C -3.8°F-19.9°C 44% 1.4 mph S2.3 kmh S 2.6 mph4.2 kmh 30.65 in1037.9 mb 0.00 in0.0 mm 0.00 in/hr0.0 mm/hr 0.00 in0.0 mm
08:45 AM 13.8°F-10.1°C -3.6°F-19.8°C 45% 1.2 mph S1.9 kmh S 2.6 mph4.2 kmh 30.65 in1037.9 mb 0.00 in0.0 mm 0.00 in/hr0.0 mm/hr 0.00 in0.0 mm
08:44 AM 13.8°F-10.1°C -4.1°F-20.1°C 44% 1.1 mph S1.8 kmh S 2.6 mph4.2 kmh 30.65 in1037.9 mb 0.00 in0.0 mm 0.00 in/hr0.0 mm/hr 0.00 in0.0 mm
08:43 AM 13.8°F-10.1°C -4.1°F-20.1°C 44% 0.9 mph S1.4 kmh S 2.6 mph4.2 kmh 30.65 in1037.9 mb 0.00 in0.0 mm 0.00 in/hr0.0 mm/hr 0.00 in0.0 mm
08:42 AM 13.8°F-10.1°C -4.1°F-20.1°C 44% 0.7 mph S1.1 kmh S 2.6 mph4.2 kmh 30.65 in1037.9 mb 0.00 in0.0 mm 0.00 in/hr0.0 mm/hr 0.00 in0.0 mm
08:41 AM 14.0°F-10.0°C -4.4°F-20.2°C 43% 0.5 mph S0.8 kmh S 2.6 mph4.2 kmh 30.65 in1037.9 mb 0.00 in0.0 mm 0.00 in/hr0.0 mm/hr 0.00 in0.0 mm
08:40 AM 14.4°F-9.8°C -3.6°F-19.8°C 44% 0.2 mph S0.3 kmh S 1.7 mph2.7 kmh 30.65 in1037.9 mb 0.00 in0.0 mm 0.00 in/hr0.0 mm/hr 0.00 in0.0 mm
08:39 AM 14.9°F-9.5°C -3.1°F-19.5°C 44% Calm Calm 0.9 mph1.4 kmh 30.65 in1037.9 mb 0.00 in0.0 mm 0.00 in/hr0.0 mm/hr 0.00 in0.0 mm
08:38 AM 15.1°F-9.4°C -3.0°F-19.4°C 44% Calm Calm -- 30.64 in1037.6 mb 0.00 in0.0 mm 0.00 in/hr0.0 mm/hr 0.00 in0.0 mm
08:37 AM 14.9°F-9.5°C -2.6°F-19.2°C 45% Calm Calm -- 30.64 in1037.6 mb 0.00 in0.0 mm 0.00 in/hr0.0 mm/hr 0.00 in0.0 mm
08:36 AM 14.5°F-9.7°C -3.0°F-19.4°C 45% Calm Calm -- 30.65 in1037.9 mb 0.00 in0.0 mm 0.00 in/hr0.0 mm/hr 0.00 in0.0 mm
08:35 AM 14.2°F-9.9°C -3.3°F-19.6°C 45% Calm Calm -- 30.65 in1037.9 mb 0.00 in0.0 mm 0.00 in/hr0.0 mm/hr 0.00 in0.0 mm
08:34 AM 13.8°F-10.1°C -3.2°F-19.6°C 46% Calm Calm -- 30.65 in1037.9 mb 0.00 in0.0 mm 0.00 in/hr0.0 mm/hr 0.00 in0.0 mm
08:33 AM 12.9°F-10.6°C -4.0°F-20.0°C 46% Calm Calm -- 30.65 in1037.9 mb 0.00 in0.0 mm 0.00 in/hr0.0 mm/hr 0.00 in0.0 mm
08:32 AM 12.6°F-10.8°C -4.3°F-20.2°C 46% Calm Calm -- 30.65 in1037.9 mb 0.00 in0.0 mm 0.00 in/hr0.0 mm/hr 0.00 in0.0 mm
08:31 AM 12.4°F-10.9°C -4.5°F-20.3°C 46% Calm Calm -- 30.66 in1038.3 mb 0.00 in0.0 mm 0.00 in/hr0.0 mm/hr 0.00 in0.0 mm
08:30 AM 12.2°F-11.0°C -4.7°F-20.4°C 46% Calm Calm -- 30.65 in1037.9 mb 0.00 in0.0 mm 0.00 in/hr0.0 mm/hr 0.00 in0.0 mm
08:29 AM 12.0°F-11.1°C -4.4°F-20.2°C 47% Calm Calm -- 30.65 in1037.9 mb 0.00 in0.0 mm 0.00 in/hr0.0 mm/hr 0.00 in0.0 mm
08:28 AM 11.8°F-11.2°C -4.6°F-20.3°C 47% Calm Calm -- 30.66 in1038.3 mb 0.00 in0.0 mm 0.00 in/hr0.0 mm/hr 0.00 in0.0 mm
08:27 AM 11.8°F-11.2°C -4.1°F-20.1°C 48% Calm Calm -- 30.66 in1038.3 mb 0.00 in0.0 mm 0.00 in/hr0.0 mm/hr 0.00 in0.0 mm
08:26 AM 11.7°F-11.3°C -4.3°F-20.2°C 48% Calm Calm -- 30.66 in1038.3 mb 0.00 in0.0 mm 0.00 in/hr0.0 mm/hr 0.00 in0.0 mm
08:25 AM 12.0°F-11.1°C -3.9°F-19.9°C 48% Calm Calm -- 30.66 in1038.3 mb 0.00 in0.0 mm 0.00 in/hr0.0 mm/hr 0.00 in0.0 mm
08:24 AM 11.8°F-11.2°C -4.1°F-20.1°C 48% Calm Calm -- 30.66 in1038.3 mb 0.00 in0.0 mm 0.00 in/hr0.0 mm/hr 0.00 in0.0 mm
08:23 AM 11.7°F-11.3°C -4.3°F-20.2°C 48% Calm Calm -- 30.66 in1038.3 mb 0.00 in0.0 mm 0.00 in/hr0.0 mm/hr 0.00 in0.0 mm
08:22 AM 11.5°F-11.4°C -4.0°F-20.0°C 49% Calm Calm -- 30.67 in1038.6 mb 0.00 in0.0 mm 0.00 in/hr0.0 mm/hr 0.00 in0.0 mm
08:21 AM 11.3°F-11.5°C -4.2°F-20.1°C 49% Calm Calm -- 30.67 in1038.6 mb 0.00 in0.0 mm 0.00 in/hr0.0 mm/hr 0.00 in0.0 mm
08:20 AM 11.1°F-11.6°C -4.3°F-20.2°C 49% Calm Calm -- 30.67 in1038.6 mb 0.00 in0.0 mm 0.00 in/hr0.0 mm/hr 0.00 in0.0 mm
08:19 AM 11.1°F-11.6°C -4.3°F-20.2°C 49% Calm Calm -- 30.67 in1038.6 mb 0.00 in0.0 mm 0.00 in/hr0.0 mm/hr 0.00 in0.0 mm
08:18 AM 11.1°F-11.6°C -4.3°F-20.2°C 49% Calm Calm -- 30.67 in1038.6 mb 0.00 in0.0 mm 0.00 in/hr0.0 mm/hr 0.00 in0.0 mm
08:17 AM 10.8°F-11.8°C -4.7°F-20.4°C 49% Calm Calm -- 30.67 in1038.6 mb 0.00 in0.0 mm 0.00 in/hr0.0 mm/hr 0.00 in0.0 mm
08:16 AM 10.8°F-11.8°C -4.7°F-20.4°C 49% Calm Calm -- 30.67 in1038.6 mb 0.00 in0.0 mm 0.00 in/hr0.0 mm/hr 0.00 in0.0 mm
08:15 AM 10.8°F-11.8°C -4.3°F-20.2°C 50% Calm Calm -- 30.67 in1038.6 mb 0.00 in0.0 mm 0.00 in/hr0.0 mm/hr 0.00 in0.0 mm
08:14 AM 10.6°F-11.9°C -4.4°F-20.2°C 50% Calm Calm -- 30.68 in1038.9 mb 0.00 in0.0 mm 0.00 in/hr0.0 mm/hr 0.00 in0.0 mm
08:13 AM 10.6°F-11.9°C -4.4°F-20.2°C 50% Calm Calm -- 30.67 in1038.6 mb 0.00 in0.0 mm 0.00 in/hr0.0 mm/hr 0.00 in0.0 mm
08:12 AM 10.6°F-11.9°C -4.4°F-20.2°C 50% Calm Calm -- 30.67 in1038.6 mb 0.00 in0.0 mm 0.00 in/hr0.0 mm/hr 0.00 in0.0 mm
08:11 AM 10.4°F-12.0°C -4.6°F-20.3°C 50% Calm Calm -- 30.67 in1038.6 mb 0.00 in0.0 mm 0.00 in/hr0.0 mm/hr 0.00 in0.0 mm
08:10 AM 10.4°F-12.0°C -4.6°F-20.3°C 50% Calm Calm -- 30.67 in1038.6 mb 0.00 in0.0 mm 0.00 in/hr0.0 mm/hr 0.00 in0.0 mm
08:09 AM 10.4°F-12.0°C -4.2°F-20.1°C 51% Calm Calm -- 30.68 in1038.9 mb 0.00 in0.0 mm 0.00 in/hr0.0 mm/hr 0.00 in0.0 mm
08:08 AM 10.4°F-12.0°C -4.2°F-20.1°C 51% Calm Calm -- 30.68 in1038.9 mb 0.00 in0.0 mm 0.00 in/hr0.0 mm/hr 0.00 in0.0 mm
08:07 AM 10.2°F-12.1°C -6.0°F-21.1°C 47% Calm Calm -- 30.68 in1038.9 mb 0.00 in0.0 mm 0.00 in/hr0.0 mm/hr 0.00 in0.0 mm
08:06 AM 10.0°F-12.2°C -6.2°F-21.2°C 47% Calm Calm -- 30.67 in1038.6 mb 0.00 in0.0 mm 0.00 in/hr0.0 mm/hr 0.00 in0.0 mm
08:05 AM 10.0°F-12.2°C -6.2°F-21.2°C 47% Calm Calm -- 30.68 in1038.9 mb 0.00 in0.0 mm 0.00 in/hr0.0 mm/hr 0.00 in0.0 mm
08:04 AM 9.9°F-12.3°C -5.9°F-21.1°C 48% Calm Calm -- 30.68 in1038.9 mb 0.00 in0.0 mm 0.00 in/hr0.0 mm/hr 0.00 in0.0 mm
08:03 AM 9.9°F-12.3°C -5.9°F-21.1°C 48% Calm Calm -- 30.68 in1038.9 mb 0.00 in0.0 mm 0.00 in/hr0.0 mm/hr 0.00 in0.0 mm
08:02 AM 9.9°F-12.3°C -5.9°F-21.1°C 48% Calm Calm -- 30.67 in1038.6 mb 0.00 in0.0 mm 0.00 in/hr0.0 mm/hr 0.00 in0.0 mm
08:01 AM 9.7°F-12.4°C -6.1°F-21.2°C 48% Calm Calm -- 30.67 in1038.6 mb 0.00 in0.0 mm 0.00 in/hr0.0 mm/hr 0.00 in0.0 mm
08:00 AM 9.7°F-12.4°C -6.1°F-21.2°C 48% Calm Calm -- 30.68 in1038.9 mb 0.00 in0.0 mm 0.00 in/hr0.0 mm/hr 0.00 in0.0 mm
07:59 AM 9.7°F-12.4°C -6.1°F-21.2°C 48% Calm Calm -- 30.68 in1038.9 mb 0.00 in0.0 mm 0.00 in/hr0.0 mm/hr 0.00 in0.0 mm
07:58 AM 9.7°F-12.4°C -6.1°F-21.2°C 48% Calm Calm -- 30.68 in1038.9 mb 0.00 in0.0 mm 0.00 in/hr0.0 mm/hr 0.00 in0.0 mm
07:57 AM 9.7°F-12.4°C -6.1°F-21.2°C 48% Calm Calm -- 30.68 in1038.9 mb 0.00 in0.0 mm 0.00 in/hr0.0 mm/hr 0.00 in0.0 mm
07:56 AM 9.7°F-12.4°C -6.1°F-21.2°C 48% Calm Calm -- 30.67 in1038.6 mb 0.00 in0.0 mm 0.00 in/hr0.0 mm/hr 0.00 in0.0 mm
07:55 AM 9.7°F-12.4°C -5.7°F-20.9°C 49% Calm Calm -- 30.68 in1038.9 mb 0.00 in0.0 mm 0.00 in/hr0.0 mm/hr 0.00 in0.0 mm
07:54 AM 9.9°F-12.3°C -5.5°F-20.8°C 49% Calm Calm -- 30.68 in1038.9 mb 0.00 in0.0 mm 0.00 in/hr0.0 mm/hr 0.00 in0.0 mm
07:53 AM 9.7°F-12.4°C -5.7°F-20.9°C 49% Calm Calm -- 30.68 in1038.9 mb 0.00 in0.0 mm 0.00 in/hr0.0 mm/hr 0.00 in0.0 mm
07:52 AM 9.5°F-12.5°C -5.9°F-21.1°C 49% Calm Calm -- 30.68 in1038.9 mb 0.00 in0.0 mm 0.00 in/hr0.0 mm/hr 0.00 in0.0 mm
07:51 AM 9.3°F-12.6°C -6.0°F-21.1°C 49% Calm Calm -- 30.68 in1038.9 mb 0.00 in0.0 mm 0.00 in/hr0.0 mm/hr 0.00 in0.0 mm
07:50 AM 9.1°F-12.7°C -6.2°F-21.2°C 49% Calm Calm -- 30.68 in1038.9 mb 0.00 in0.0 mm 0.00 in/hr0.0 mm/hr 0.00 in0.0 mm
07:49 AM 9.0°F-12.8°C -6.4°F-21.3°C 49% Calm Calm -- 30.68 in1038.9 mb 0.00 in0.0 mm 0.00 in/hr0.0 mm/hr 0.00 in0.0 mm
07:48 AM 9.0°F-12.8°C -6.4°F-21.3°C 49% Calm Calm -- 30.68 in1038.9 mb 0.00 in0.0 mm 0.00 in/hr0.0 mm/hr 0.00 in0.0 mm
07:47 AM 8.8°F-12.9°C -6.5°F-21.4°C 49% Calm Calm -- 30.68 in1038.9 mb 0.00 in0.0 mm 0.00 in/hr0.0 mm/hr 0.00 in0.0 mm
07:46 AM 8.8°F-12.9°C -6.5°F-21.4°C 49% Calm Calm -- 30.68 in1038.9 mb 0.00 in0.0 mm 0.00 in/hr0.0 mm/hr 0.00 in0.0 mm
07:45 AM 8.6°F-13.0°C -6.3°F-21.3°C 50% Calm Calm -- 30.68 in1038.9 mb 0.00 in0.0 mm 0.00 in/hr0.0 mm/hr 0.00 in0.0 mm
07:44 AM 8.6°F-13.0°C -6.3°F-21.3°C 50% Calm Calm -- 30.69 in1039.3 mb 0.00 in0.0 mm 0.00 in/hr0.0 mm/hr 0.00 in0.0 mm
07:43 AM 8.6°F-13.0°C -6.3°F-21.3°C 50% Calm Calm -- 30.69 in1039.3 mb 0.00 in0.0 mm 0.00 in/hr0.0 mm/hr 0.00 in0.0 mm
07:42 AM 8.4°F-13.1°C -6.0°F-21.1°C 51% Calm Calm -- 30.69 in1039.3 mb 0.00 in0.0 mm 0.00 in/hr0.0 mm/hr 0.00 in0.0 mm
07:41 AM 8.2°F-13.2°C -6.2°F-21.2°C 51% Calm Calm -- 30.69 in1039.3 mb 0.00 in0.0 mm 0.00 in/hr0.0 mm/hr 0.00 in0.0 mm
07:40 AM 8.2°F-13.2°C -6.2°F-21.2°C 51% Calm Calm -- 30.69 in1039.3 mb 0.00 in0.0 mm 0.00 in/hr0.0 mm/hr 0.00 in0.0 mm
07:39 AM 8.1°F-13.3°C -6.4°F-21.3°C 51% Calm Calm -- 30.70 in1039.6 mb 0.00 in0.0 mm 0.00 in/hr0.0 mm/hr 0.00 in0.0 mm
07:38 AM 8.1°F-13.3°C -6.0°F-21.1°C 52% Calm Calm -- 30.69 in1039.3 mb 0.00 in0.0 mm 0.00 in/hr0.0 mm/hr 0.00 in0.0 mm
07:37 AM 8.1°F-13.3°C -6.0°F-21.1°C 52% Calm Calm -- 30.69 in1039.3 mb 0.00 in0.0 mm 0.00 in/hr0.0 mm/hr 0.00 in0.0 mm
07:36 AM 8.1°F-13.3°C -6.0°F-21.1°C 52% Calm Calm -- 30.69 in1039.3 mb 0.00 in0.0 mm 0.00 in/hr0.0 mm/hr 0.00 in0.0 mm
07:35 AM 8.1°F-13.3°C -6.0°F-21.1°C 52% Calm Calm -- 30.70 in1039.6 mb 0.00 in0.0 mm 0.00 in/hr0.0 mm/hr 0.00 in0.0 mm
07:34 AM 7.9°F-13.4°C -6.1°F-21.2°C 52% Calm Calm -- 30.70 in1039.6 mb 0.00 in0.0 mm 0.00 in/hr0.0 mm/hr 0.00 in0.0 mm
07:33 AM 7.9°F-13.4°C -6.1°F-21.2°C 52% Calm Calm -- 30.70 in1039.6 mb 0.00 in0.0 mm 0.00 in/hr0.0 mm/hr 0.00 in0.0 mm
07:32 AM 7.9°F-13.4°C -5.7°F-20.9°C 53% Calm Calm -- 30.70 in1039.6 mb 0.00 in0.0 mm 0.00 in/hr0.0 mm/hr 0.00 in0.0 mm
07:31 AM 7.7°F-13.5°C -5.9°F-21.1°C 53% Calm Calm -- 30.70 in1039.6 mb 0.00 in0.0 mm 0.00 in/hr0.0 mm/hr 0.00 in0.0 mm
07:30 AM 7.7°F-13.5°C -5.9°F-21.1°C 53% Calm Calm -- 30.71 in1040.0 mb 0.00 in0.0 mm 0.00 in/hr0.0 mm/hr 0.00 in0.0 mm
07:29 AM 7.7°F-13.5°C -5.9°F-21.1°C 53% Calm Calm -- 30.71 in1040.0 mb 0.00 in0.0 mm 0.00 in/hr0.0 mm/hr 0.00 in0.0 mm
07:28 AM 7.7°F-13.5°C -5.9°F-21.1°C 53% Calm Calm -- 30.71 in1040.0 mb 0.00 in0.0 mm 0.00 in/hr0.0 mm/hr 0.00 in0.0 mm
07:27 AM 7.7°F-13.5°C -5.9°F-21.1°C 53% Calm Calm -- 30.71 in1040.0 mb 0.00 in0.0 mm 0.00 in/hr0.0 mm/hr 0.00 in0.0 mm
07:26 AM 7.5°F-13.6°C -6.1°F-21.2°C 53% Calm Calm -- 30.71 in1040.0 mb 0.00 in0.0 mm 0.00 in/hr0.0 mm/hr 0.00 in0.0 mm
07:25 AM 7.3°F-13.7°C -6.2°F-21.2°C 53% Calm Calm -- 30.71 in1040.0 mb 0.00 in0.0 mm 0.00 in/hr0.0 mm/hr 0.00 in0.0 mm
07:24 AM 7.3°F-13.7°C -6.2°F-21.2°C 53% Calm Calm -- 30.71 in1040.0 mb 0.00 in0.0 mm 0.00 in/hr0.0 mm/hr 0.00 in0.0 mm
07:23 AM 7.2°F-13.8°C -6.4°F-21.3°C 53% Calm Calm -- 30.71 in1040.0 mb 0.00 in0.0 mm 0.00 in/hr0.0 mm/hr 0.00 in0.0 mm
07:22 AM 7.2°F-13.8°C -6.4°F-21.3°C 53% Calm Calm -- 30.72 in1040.3 mb 0.00 in0.0 mm 0.00 in/hr0.0 mm/hr 0.00 in0.0 mm
07:21 AM 7.2°F-13.8°C -6.4°F-21.3°C 53% Calm Calm -- 30.71 in1040.0 mb 0.00 in0.0 mm 0.00 in/hr0.0 mm/hr 0.00 in0.0 mm
07:20 AM 7.2°F-13.8°C -6.4°F-21.3°C 53% Calm Calm -- 30.72 in1040.3 mb 0.00 in0.0 mm 0.00 in/hr0.0 mm/hr 0.00 in0.0 mm
07:19 AM 7.2°F-13.8°C -6.4°F-21.3°C 53% Calm Calm -- 30.71 in1040.0 mb 0.00 in0.0 mm 0.00 in/hr0.0 mm/hr 0.00 in0.0 mm
07:18 AM 7.0°F-13.9°C -6.6°F-21.4°C 53% Calm Calm -- 30.71 in1040.0 mb 0.00 in0.0 mm 0.00 in/hr0.0 mm/hr 0.00 in0.0 mm
07:17 AM 6.8°F-14.0°C -6.7°F-21.5°C 53% Calm Calm -- 30.71 in1040.0 mb 0.00 in0.0 mm 0.00 in/hr0.0 mm/hr 0.00 in0.0 mm
07:16 AM 6.8°F-14.0°C -6.7°F-21.5°C 53% Calm Calm -- 30.71 in1040.0 mb 0.00 in0.0 mm 0.00 in/hr0.0 mm/hr 0.00 in0.0 mm
07:15 AM 6.6°F-14.1°C -6.5°F-21.4°C 54% Calm Calm -- 30.72 in1040.3 mb 0.00 in0.0 mm 0.00 in/hr0.0 mm/hr 0.00 in0.0 mm
07:14 AM 6.6°F-14.1°C -6.5°F-21.4°C 54% Calm Calm -- 30.71 in1040.0 mb 0.00 in0.0 mm 0.00 in/hr0.0 mm/hr 0.00 in0.0 mm
07:13 AM 6.4°F-14.2°C -6.7°F-21.5°C 54% Calm Calm -- 30.71 in1040.0 mb 0.00 in0.0 mm 0.00 in/hr0.0 mm/hr 0.00 in0.0 mm
07:12 AM 6.3°F-14.3°C -6.9°F-21.6°C 54% Calm Calm -- 30.71 in1040.0 mb 0.00 in0.0 mm 0.00 in/hr0.0 mm/hr 0.00 in0.0 mm
07:11 AM 6.3°F-14.3°C -6.9°F-21.6°C 54% Calm Calm -- 30.71 in1040.0 mb 0.00 in0.0 mm 0.00 in/hr0.0 mm/hr 0.00 in0.0 mm
07:10 AM 6.3°F-14.3°C -6.9°F-21.6°C 54% Calm Calm -- 30.71 in1040.0 mb 0.00 in0.0 mm 0.00 in/hr0.0 mm/hr 0.00 in0.0 mm
07:09 AM 6.4°F-14.2°C -6.3°F-21.3°C 55% Calm Calm -- 30.71 in1040.0 mb 0.00 in0.0 mm 0.00 in/hr0.0 mm/hr 0.00 in0.0 mm
07:08 AM 6.4°F-14.2°C -6.3°F-21.3°C 55% Calm Calm -- 30.71 in1040.0 mb 0.00 in0.0 mm 0.00 in/hr0.0 mm/hr 0.00 in0.0 mm
07:07 AM 6.4°F-14.2°C -6.3°F-21.3°C 55% Calm Calm -- 30.71 in1040.0 mb 0.00 in0.0 mm 0.00 in/hr0.0 mm/hr 0.00 in0.0 mm
07:06 AM 6.4°F-14.2°C -6.3°F-21.3°C 55% Calm Calm -- 30.71 in1040.0 mb 0.00 in0.0 mm 0.00 in/hr0.0 mm/hr 0.00 in0.0 mm
07:05 AM 6.4°F-14.2°C -6.3°F-21.3°C 55% Calm Calm -- 30.71 in1040.0 mb 0.00 in0.0 mm 0.00 in/hr0.0 mm/hr 0.00 in0.0 mm
07:04 AM 6.4°F-14.2°C -6.3°F-21.3°C 55% Calm Calm -- 30.71 in1040.0 mb 0.00 in0.0 mm 0.00 in/hr0.0 mm/hr 0.00 in0.0 mm
07:03 AM 6.4°F-14.2°C -6.3°F-21.3°C 55% Calm Calm -- 30.71 in1040.0 mb 0.00 in0.0 mm 0.00 in/hr0.0 mm/hr 0.00 in0.0 mm
07:02 AM 6.4°F-14.2°C -6.3°F-21.3°C 55% Calm Calm -- 30.71 in1040.0 mb 0.00 in0.0 mm 0.00 in/hr0.0 mm/hr 0.00 in0.0 mm
07:01 AM 6.4°F-14.2°C -6.3°F-21.3°C 55% Calm Calm -- 30.72 in1040.3 mb 0.00 in0.0 mm 0.00 in/hr0.0 mm/hr 0.00 in0.0 mm
07:00 AM 6.4°F-14.2°C -6.3°F-21.3°C 55% Calm Calm -- 30.71 in1040.0 mb 0.00 in0.0 mm 0.00 in/hr0.0 mm/hr 0.00 in0.0 mm
06:59 AM 6.4°F-14.2°C -6.3°F-21.3°C 55% Calm Calm -- 30.71 in1040.0 mb 0.00 in0.0 mm 0.00 in/hr0.0 mm/hr 0.00 in0.0 mm
06:58 AM 6.4°F-14.2°C -6.3°F-21.3°C 55% Calm Calm -- 30.71 in1040.0 mb 0.00 in0.0 mm 0.00 in/hr0.0 mm/hr 0.00 in0.0 mm
06:57 AM 6.3°F-14.3°C -6.5°F-21.4°C 55% Calm Calm -- 30.71 in1040.0 mb 0.00 in0.0 mm 0.00 in/hr0.0 mm/hr 0.00 in0.0 mm
06:56 AM 6.3°F-14.3°C -6.5°F-21.4°C 55% Calm Calm -- 30.71 in1040.0 mb 0.00 in0.0 mm 0.00 in/hr0.0 mm/hr 0.00 in0.0 mm
06:55 AM 6.3°F-14.3°C -6.5°F-21.4°C 55% Calm Calm -- 30.71 in1040.0 mb 0.00 in0.0 mm 0.00 in/hr0.0 mm/hr 0.00 in0.0 mm
06:54 AM 6.3°F-14.3°C -6.5°F-21.4°C 55% Calm Calm -- 30.71 in1040.0 mb 0.00 in0.0 mm 0.00 in/hr0.0 mm/hr 0.00 in0.0 mm
06:53 AM 6.3°F-14.3°C -6.1°F-21.2°C 56% Calm Calm -- 30.71 in1040.0 mb 0.00 in0.0 mm 0.00 in/hr0.0 mm/hr 0.00 in0.0 mm
06:52 AM 6.3°F-14.3°C -6.1°F-21.2°C 56% Calm Calm -- 30.71 in1040.0 mb 0.00 in0.0 mm 0.00 in/hr0.0 mm/hr 0.00 in0.0 mm
06:51 AM 6.3°F-14.3°C -6.1°F-21.2°C 56% Calm Calm -- 30.71 in1040.0 mb 0.00 in0.0 mm 0.00 in/hr0.0 mm/hr 0.00 in0.0 mm
06:50 AM 6.3°F-14.3°C -6.1°F-21.2°C 56% Calm Calm -- 30.71 in1040.0 mb 0.00 in0.0 mm 0.00 in/hr0.0 mm/hr 0.00 in0.0 mm
06:49 AM 6.3°F-14.3°C -6.5°F-21.4°C 55% Calm Calm -- 30.71 in1040.0 mb 0.00 in0.0 mm 0.00 in/hr0.0 mm/hr 0.00 in0.0 mm
06:48 AM 6.3°F-14.3°C -6.5°F-21.4°C 55% Calm Calm -- 30.71 in1040.0 mb 0.00 in0.0 mm 0.00 in/hr0.0 mm/hr 0.00 in0.0 mm
06:47 AM 6.1°F-14.4°C -6.7°F-21.5°C 55% Calm Calm -- 30.71 in1040.0 mb 0.00 in0.0 mm 0.00 in/hr0.0 mm/hr 0.00 in0.0 mm
06:46 AM 5.9°F-14.5°C -6.8°F-21.6°C 55% Calm Calm -- 30.70 in1039.6 mb 0.00 in0.0 mm 0.00 in/hr0.0 mm/hr 0.00 in0.0 mm
06:45 AM 5.9°F-14.5°C -6.8°F-21.6°C 55% Calm Calm -- 30.71 in1040.0 mb 0.00 in0.0 mm 0.00 in/hr0.0 mm/hr 0.00 in0.0 mm
06:44 AM 5.9°F-14.5°C -6.8°F-21.6°C 55% Calm Calm -- 30.70 in1039.6 mb 0.00 in0.0 mm 0.00 in/hr0.0 mm/hr 0.00 in0.0 mm
06:43 AM 5.9°F-14.5°C -6.8°F-21.6°C 55% Calm Calm -- 30.70 in1039.6 mb 0.00 in0.0 mm 0.00 in/hr0.0 mm/hr 0.00 in0.0 mm
06:42 AM 5.9°F-14.5°C -6.8°F-21.6°C 55% Calm Calm -- 30.70 in1039.6 mb 0.00 in0.0 mm 0.00 in/hr0.0 mm/hr 0.00 in0.0 mm
06:41 AM 5.9°F-14.5°C -6.8°F-21.6°C 55% Calm Calm -- 30.70 in1039.6 mb 0.00 in0.0 mm 0.00 in/hr0.0 mm/hr 0.00 in0.0 mm
06:40 AM 5.9°F-14.5°C -6.8°F-21.6°C 55% Calm Calm -- 30.71 in1040.0 mb 0.00 in0.0 mm 0.00 in/hr0.0 mm/hr 0.00 in0.0 mm
06:39 AM 5.7°F-14.6°C -7.0°F-21.7°C 55% Calm Calm -- 30.70 in1039.6 mb 0.00 in0.0 mm 0.00 in/hr0.0 mm/hr 0.00 in0.0 mm
06:38 AM 5.7°F-14.6°C -7.0°F-21.7°C 55% Calm Calm -- 30.70 in1039.6 mb 0.00 in0.0 mm 0.00 in/hr0.0 mm/hr 0.00 in0.0 mm
06:37 AM 5.7°F-14.6°C -7.0°F-21.7°C 55% Calm Calm -- 30.71 in1040.0 mb 0.00 in0.0 mm 0.00 in/hr0.0 mm/hr 0.00 in0.0 mm
06:36 AM 5.9°F-14.5°C -6.8°F-21.6°C 55% Calm Calm -- 30.70 in1039.6 mb 0.00 in0.0 mm 0.00 in/hr0.0 mm/hr 0.00 in0.0 mm
06:35 AM 5.9°F-14.5°C -6.8°F-21.6°C 55% Calm Calm -- 30.70 in1039.6 mb 0.00 in0.0 mm 0.00 in/hr0.0 mm/hr 0.00 in0.0 mm
06:34 AM 6.1°F-14.4°C -6.7°F-21.5°C 55% Calm Calm -- 30.71 in1040.0 mb 0.00 in0.0 mm 0.00 in/hr0.0 mm/hr 0.00 in0.0 mm
06:33 AM 6.1°F-14.4°C -6.7°F-21.5°C 55% Calm Calm -- 30.71 in1040.0 mb 0.00 in0.0 mm 0.00 in/hr0.0 mm/hr 0.00 in0.0 mm
06:32 AM 6.1°F-14.4°C -6.7°F-21.5°C 55% Calm Calm -- 30.70 in1039.6 mb 0.00 in0.0 mm 0.00 in/hr0.0 mm/hr 0.00 in0.0 mm
06:31 AM 6.1°F-14.4°C -6.7°F-21.5°C 55% Calm Calm -- 30.71 in1040.0 mb 0.00 in0.0 mm 0.00 in/hr0.0 mm/hr 0.00 in0.0 mm
06:30 AM 6.3°F-14.3°C -6.5°F-21.4°C 55% Calm Calm -- 30.70 in1039.6 mb 0.00 in0.0 mm 0.00 in/hr0.0 mm/hr 0.00 in0.0 mm
06:29 AM 6.3°F-14.3°C -6.5°F-21.4°C 55% Calm Calm -- 30.71 in1040.0 mb 0.00 in0.0 mm 0.00 in/hr0.0 mm/hr 0.00 in0.0 mm
06:28 AM 6.1°F-14.4°C -6.7°F-21.5°C 55% Calm Calm -- 30.70 in1039.6 mb 0.00 in0.0 mm 0.00 in/hr0.0 mm/hr 0.00 in0.0 mm
06:27 AM 6.1°F-14.4°C -6.7°F-21.5°C 55% Calm Calm -- 30.70 in1039.6 mb 0.00 in0.0 mm 0.00 in/hr0.0 mm/hr 0.00 in0.0 mm
06:26 AM 5.9°F-14.5°C -6.8°F-21.6°C 55% Calm Calm -- 30.70 in1039.6 mb 0.00 in0.0 mm 0.00 in/hr0.0 mm/hr 0.00 in0.0 mm
06:25 AM 5.9°F-14.5°C -6.8°F-21.6°C 55% Calm Calm -- 30.70 in1039.6 mb 0.00 in0.0 mm 0.00 in/hr0.0 mm/hr 0.00 in0.0 mm
06:24 AM 5.9°F-14.5°C -6.8°F-21.6°C 55% Calm Calm -- 30.70 in1039.6 mb 0.00 in0.0 mm 0.00 in/hr0.0 mm/hr 0.00 in0.0 mm
06:23 AM 5.9°F-14.5°C -6.8°F-21.6°C 55% Calm Calm -- 30.70 in1039.6 mb 0.00 in0.0 mm 0.00 in/hr0.0 mm/hr 0.00 in0.0 mm
06:22 AM 5.7°F-14.6°C -7.0°F-21.7°C 55% Calm Calm -- 30.70 in1039.6 mb 0.00 in0.0 mm 0.00 in/hr0.0 mm/hr 0.00 in0.0 mm
06:21 AM 5.7°F-14.6°C -7.0°F-21.7°C 55% Calm Calm -- 30.70 in1039.6 mb 0.00 in0.0 mm 0.00 in/hr0.0 mm/hr 0.00 in0.0 mm
06:20 AM 5.7°F-14.6°C -7.0°F-21.7°C 55% Calm Calm -- 30.70 in1039.6 mb 0.00 in0.0 mm 0.00 in/hr0.0 mm/hr 0.00 in0.0 mm
06:19 AM 5.7°F-14.6°C -7.0°F-21.7°C 55% Calm Calm -- 30.71 in1040.0 mb 0.00 in0.0 mm 0.00 in/hr0.0 mm/hr 0.00 in0.0 mm
06:18 AM 5.5°F-14.7°C -7.2°F-21.8°C 55% Calm Calm -- 30.70 in1039.6 mb 0.00 in0.0 mm 0.00 in/hr0.0 mm/hr 0.00 in0.0 mm
06:17 AM 5.5°F-14.7°C -7.2°F-21.8°C 55% Calm Calm -- 30.70 in1039.6 mb 0.00 in0.0 mm 0.00 in/hr0.0 mm/hr 0.00 in0.0 mm
06:16 AM 5.4°F-14.8°C -7.3°F-21.8°C 55% Calm Calm -- 30.70 in1039.6 mb 0.00 in0.0 mm 0.00 in/hr0.0 mm/hr 0.00 in0.0 mm
06:15 AM 5.4°F-14.8°C -7.3°F-21.8°C 55% Calm Calm -- 30.70 in1039.6 mb 0.00 in0.0 mm 0.00 in/hr0.0 mm/hr 0.00 in0.0 mm
06:14 AM 5.4°F-14.8°C -7.3°F-21.8°C 55% Calm Calm -- 30.71 in1040.0 mb 0.00 in0.0 mm 0.00 in/hr0.0 mm/hr 0.00 in0.0 mm
06:13 AM 5.2°F-14.9°C -7.5°F-21.9°C 55% Calm Calm -- 30.71 in1040.0 mb 0.00 in0.0 mm 0.00 in/hr0.0 mm/hr 0.00 in0.0 mm
06:12 AM 5.2°F-14.9°C -7.5°F-21.9°C 55% Calm Calm -- 30.71 in1040.0 mb 0.00 in0.0 mm 0.00 in/hr0.0 mm/hr 0.00 in0.0 mm
06:11 AM 5.2°F-14.9°C -7.5°F-21.9°C 55% Calm Calm -- 30.71 in1040.0 mb 0.00 in0.0 mm 0.00 in/hr0.0 mm/hr 0.00 in0.0 mm
06:10 AM 5.0°F-15.0°C -7.7°F-22.1°C 55% Calm Calm -- 30.71 in1040.0 mb 0.00 in0.0 mm 0.00 in/hr0.0 mm/hr 0.00 in0.0 mm
06:09 AM 5.0°F-15.0°C -7.7°F-22.1°C 55% Calm Calm -- 30.71 in1040.0 mb 0.00 in0.0 mm 0.00 in/hr0.0 mm/hr 0.00 in0.0 mm
06:08 AM 4.8°F-15.1°C -7.5°F-21.9°C 56% Calm Calm -- 30.72 in1040.3 mb 0.00 in0.0 mm 0.00 in/hr0.0 mm/hr 0.00 in0.0 mm
06:07 AM 4.6°F-15.2°C -7.6°F-22.0°C 56% Calm Calm -- 30.71 in1040.0 mb 0.00 in0.0 mm 0.00 in/hr0.0 mm/hr 0.00 in0.0 mm
06:06 AM 4.6°F-15.2°C -7.6°F-22.0°C 56% Calm Calm -- 30.71 in1040.0 mb 0.00 in0.0 mm 0.00 in/hr0.0 mm/hr 0.00 in0.0 mm
06:05 AM 4.5°F-15.3°C -7.8°F-22.1°C 56% Calm Calm -- 30.72 in1040.3 mb 0.00 in0.0 mm 0.00 in/hr0.0 mm/hr 0.00 in0.0 mm
06:04 AM 4.5°F-15.3°C -7.8°F-22.1°C 56% Calm Calm -- 30.72 in1040.3 mb 0.00 in0.0 mm 0.00 in/hr0.0 mm/hr 0.00 in0.0 mm
06:03 AM 4.5°F-15.3°C -7.8°F-22.1°C 56% Calm Calm -- 30.72 in1040.3 mb 0.00 in0.0 mm 0.00 in/hr0.0 mm/hr 0.00 in0.0 mm
06:02 AM 4.5°F-15.3°C -7.8°F-22.1°C 56% Calm Calm -- 30.71 in1040.0 mb 0.00 in0.0 mm 0.00 in/hr0.0 mm/hr 0.00 in0.0 mm
06:01 AM 4.5°F-15.3°C -7.8°F-22.1°C 56% Calm Calm -- 30.71 in1040.0 mb 0.00 in0.0 mm 0.00 in/hr0.0 mm/hr 0.00 in0.0 mm
06:00 AM 4.5°F-15.3°C -7.8°F-22.1°C 56% Calm Calm -- 30.72 in1040.3 mb 0.00 in0.0 mm 0.00 in/hr0.0 mm/hr 0.00 in0.0 mm
05:59 AM 4.3°F-15.4°C -8.0°F-22.2°C 56% Calm Calm -- 30.72 in1040.3 mb 0.00 in0.0 mm 0.00 in/hr0.0 mm/hr 0.00 in0.0 mm
05:58 AM 4.3°F-15.4°C -8.0°F-22.2°C 56% Calm Calm -- 30.72 in1040.3 mb 0.00 in0.0 mm 0.00 in/hr0.0 mm/hr 0.00 in0.0 mm
05:57 AM 4.3°F-15.4°C -8.0°F-22.2°C 56% Calm Calm -- 30.72 in1040.3 mb 0.00 in0.0 mm 0.00 in/hr0.0 mm/hr 0.00 in0.0 mm
05:56 AM 4.1°F-15.5°C -8.1°F-22.3°C 56% Calm Calm -- 30.73 in1040.6 mb 0.00 in0.0 mm 0.00 in/hr0.0 mm/hr 0.00 in0.0 mm
05:55 AM 4.1°F-15.5°C -8.1°F-22.3°C 56% Calm Calm -- 30.72 in1040.3 mb 0.00 in0.0 mm 0.00 in/hr0.0 mm/hr 0.00 in0.0 mm
05:54 AM 4.1°F-15.5°C -8.1°F-22.3°C 56% Calm Calm -- 30.72 in1040.3 mb 0.00 in0.0 mm 0.00 in/hr0.0 mm/hr 0.00 in0.0 mm
05:53 AM 3.9°F-15.6°C -8.3°F-22.4°C 56% Calm Calm 0.9 mph1.4 kmh 30.72 in1040.3 mb 0.00 in0.0 mm 0.00 in/hr0.0 mm/hr 0.00 in0.0 mm
05:52 AM 3.7°F-15.7°C -8.9°F-22.7°C 55% 0.1 mph S0.2 kmh S 1.7 mph2.7 kmh 30.73 in1040.6 mb 0.00 in0.0 mm 0.00 in/hr0.0 mm/hr 0.00 in0.0 mm
05:51 AM 3.7°F-15.7°C -8.9°F-22.7°C 55% 0.3 mph S0.5 kmh S 1.7 mph2.7 kmh 30.73 in1040.6 mb 0.00 in0.0 mm 0.00 in/hr0.0 mm/hr 0.00 in0.0 mm
05:50 AM 3.6°F-15.8°C -9.0°F-22.8°C 55% 0.2 mph S0.3 kmh S 1.7 mph2.7 kmh 30.73 in1040.6 mb 0.00 in0.0 mm 0.00 in/hr0.0 mm/hr 0.00 in0.0 mm
05:49 AM 3.6°F-15.8°C -9.0°F-22.8°C 55% 0.3 mph S0.5 kmh S 1.7 mph2.7 kmh 30.73 in1040.6 mb 0.00 in0.0 mm 0.00 in/hr0.0 mm/hr 0.00 in0.0 mm
05:48 AM 3.6°F-15.8°C -9.0°F-22.8°C 55% 0.3 mph S0.5 kmh S 1.7 mph2.7 kmh 30.73 in1040.6 mb 0.00 in0.0 mm 0.00 in/hr0.0 mm/hr 0.00 in0.0 mm
05:47 AM 3.6°F-15.8°C -8.7°F-22.6°C 56% 0.3 mph S0.5 kmh S 1.7 mph2.7 kmh 30.73 in1040.6 mb 0.00 in0.0 mm 0.00 in/hr0.0 mm/hr 0.00 in0.0 mm
05:46 AM 3.7°F-15.7°C -8.5°F-22.5°C 56% 0.2 mph S0.3 kmh S 1.7 mph2.7 kmh 30.73 in1040.6 mb 0.00 in0.0 mm 0.00 in/hr0.0 mm/hr 0.00 in0.0 mm
05:45 AM 4.1°F-15.5°C -8.1°F-22.3°C 56% 0.3 mph S0.5 kmh S 1.7 mph2.7 kmh 30.73 in1040.6 mb 0.00 in0.0 mm 0.00 in/hr0.0 mm/hr 0.00 in0.0 mm
05:44 AM 3.9°F-15.6°C -8.3°F-22.4°C 56% 0.3 mph S0.5 kmh S 1.7 mph2.7 kmh 30.73 in1040.6 mb 0.00 in0.0 mm 0.00 in/hr0.0 mm/hr 0.00 in0.0 mm
05:43 AM 4.1°F-15.5°C -8.1°F-22.3°C 56% 0.2 mph S0.3 kmh S 1.7 mph2.7 kmh 30.73 in1040.6 mb 0.00 in0.0 mm 0.00 in/hr0.0 mm/hr 0.00 in0.0 mm
05:42 AM 4.1°F-15.5°C -8.1°F-22.3°C 56% 0.1 mph S0.2 kmh S 1.7 mph2.7 kmh 30.73 in1040.6 mb 0.00 in0.0 mm 0.00 in/hr0.0 mm/hr 0.00 in0.0 mm
05:41 AM 4.1°F-15.5°C -8.5°F-22.5°C 55% Calm Calm -- 30.74 in1041.0 mb 0.00 in0.0 mm 0.00 in/hr0.0 mm/hr 0.00 in0.0 mm
05:40 AM 3.9°F-15.6°C -8.7°F-22.6°C 55% Calm Calm -- 30.73 in1040.6 mb 0.00 in0.0 mm 0.00 in/hr0.0 mm/hr 0.00 in0.0 mm
05:39 AM 3.7°F-15.7°C -8.9°F-22.7°C 55% Calm Calm -- 30.73 in1040.6 mb 0.00 in0.0 mm 0.00 in/hr0.0 mm/hr 0.00 in0.0 mm
05:38 AM 3.6°F-15.8°C -9.0°F-22.8°C 55% Calm Calm -- 30.73 in1040.6 mb 0.00 in0.0 mm 0.00 in/hr0.0 mm/hr 0.00 in0.0 mm
05:37 AM 3.4°F-15.9°C -9.2°F-22.9°C 55% Calm Calm -- 30.73 in1040.6 mb 0.00 in0.0 mm 0.00 in/hr0.0 mm/hr 0.00 in0.0 mm
05:36 AM 3.6°F-15.8°C -9.0°F-22.8°C 55% Calm Calm -- 30.73 in1040.6 mb 0.00 in0.0 mm 0.00 in/hr0.0 mm/hr 0.00 in0.0 mm
05:35 AM 3.6°F-15.8°C -9.0°F-22.8°C 55% Calm Calm -- 30.73 in1040.6 mb 0.00 in0.0 mm 0.00 in/hr0.0 mm/hr 0.00 in0.0 mm
05:34 AM 3.6°F-15.8°C -9.0°F-22.8°C 55% Calm Calm -- 30.73 in1040.6 mb 0.00 in0.0 mm 0.00 in/hr0.0 mm/hr 0.00 in0.0 mm
05:33 AM 3.6°F-15.8°C -9.0°F-22.8°C 55% Calm Calm -- 30.73 in1040.6 mb 0.00 in0.0 mm 0.00 in/hr0.0 mm/hr 0.00 in0.0 mm
05:32 AM 3.7°F-15.7°C -8.9°F-22.7°C 55% Calm Calm -- 30.73 in1040.6 mb 0.00 in0.0 mm 0.00 in/hr0.0 mm/hr 0.00 in0.0 mm
05:31 AM 3.7°F-15.7°C -8.9°F-22.7°C 55% Calm Calm -- 30.73 in1040.6 mb 0.00 in0.0 mm 0.00 in/hr0.0 mm/hr 0.00 in0.0 mm
05:30 AM 3.7°F-15.7°C -8.5°F-22.5°C 56% Calm Calm -- 30.73 in1040.6 mb 0.00 in0.0 mm 0.00 in/hr0.0 mm/hr 0.00 in0.0 mm
05:29 AM 4.1°F-15.5°C -8.1°F-22.3°C 56% Calm Calm -- 30.73 in1040.6 mb 0.00 in0.0 mm 0.00 in/hr0.0 mm/hr 0.00 in0.0 mm
05:28 AM 4.1°F-15.5°C -8.1°F-22.3°C 56% Calm Calm -- 30.73 in1040.6 mb 0.00 in0.0 mm 0.00 in/hr0.0 mm/hr 0.00 in0.0 mm
05:27 AM 4.1°F-15.5°C -8.1°F-22.3°C 56% Calm Calm -- 30.73 in1040.6 mb 0.00 in0.0 mm 0.00 in/hr0.0 mm/hr 0.00 in0.0 mm
05:26 AM 4.1°F-15.5°C -8.1°F-22.3°C 56% Calm Calm -- 30.72 in1040.3 mb 0.00 in0.0 mm 0.00 in/hr0.0 mm/hr 0.00 in0.0 mm
05:25 AM 4.1°F-15.5°C -8.1°F-22.3°C 56% Calm Calm -- 30.72 in1040.3 mb 0.00 in0.0 mm 0.00 in/hr0.0 mm/hr 0.00 in0.0 mm
05:24 AM 4.1°F-15.5°C -8.1°F-22.3°C 56% Calm Calm -- 30.72 in1040.3 mb 0.00 in0.0 mm 0.00 in/hr0.0 mm/hr 0.00 in0.0 mm
05:23 AM 4.1°F-15.5°C -8.1°F-22.3°C 56% Calm Calm -- 30.72 in1040.3 mb 0.00 in0.0 mm 0.00 in/hr0.0 mm/hr 0.00 in0.0 mm
05:22 AM 4.1°F-15.5°C -8.1°F-22.3°C 56% Calm Calm -- 30.72 in1040.3 mb 0.00 in0.0 mm 0.00 in/hr0.0 mm/hr 0.00 in0.0 mm
05:21 AM 4.3°F-15.4°C -7.6°F-22.0°C 57% Calm Calm -- 30.72 in1040.3 mb 0.00 in0.0 mm 0.00 in/hr0.0 mm/hr 0.00 in0.0 mm
05:20 AM 4.5°F-15.3°C -7.4°F-21.9°C 57% Calm Calm -- 30.72 in1040.3 mb 0.00 in0.0 mm 0.00 in/hr0.0 mm/hr 0.00 in0.0 mm
05:19 AM 4.5°F-15.3°C -7.4°F-21.9°C 57% Calm Calm -- 30.72 in1040.3 mb 0.00 in0.0 mm 0.00 in/hr0.0 mm/hr 0.00 in0.0 mm
05:18 AM 4.6°F-15.2°C -7.3°F-21.8°C 57% Calm Calm -- 30.72 in1040.3 mb 0.00 in0.0 mm 0.00 in/hr0.0 mm/hr 0.00 in0.0 mm
05:17 AM 4.6°F-15.2°C -7.3°F-21.8°C 57% Calm Calm -- 30.72 in1040.3 mb 0.00 in0.0 mm 0.00 in/hr0.0 mm/hr 0.00 in0.0 mm
05:16 AM 4.5°F-15.3°C -7.4°F-21.9°C 57% Calm Calm -- 30.71 in1040.0 mb 0.00 in0.0 mm 0.00 in/hr0.0 mm/hr 0.00 in0.0 mm
05:15 AM 4.6°F-15.2°C -7.3°F-21.8°C 57% Calm Calm -- 30.72 in1040.3 mb 0.00 in0.0 mm 0.00 in/hr0.0 mm/hr 0.00 in0.0 mm
05:14 AM 4.8°F-15.1°C -7.1°F-21.7°C 57% Calm Calm -- 30.72 in1040.3 mb 0.00 in0.0 mm 0.00 in/hr0.0 mm/hr 0.00 in0.0 mm
05:13 AM 5.0°F-15.0°C -7.3°F-21.8°C 56% Calm Calm -- 30.72 in1040.3 mb 0.00 in0.0 mm 0.00 in/hr0.0 mm/hr 0.00 in0.0 mm
05:12 AM 5.0°F-15.0°C -7.3°F-21.8°C 56% Calm Calm -- 30.72 in1040.3 mb 0.00 in0.0 mm 0.00 in/hr0.0 mm/hr 0.00 in0.0 mm
05:11 AM 5.0°F-15.0°C -7.3°F-21.8°C 56% Calm Calm -- 30.71 in1040.0 mb 0.00 in0.0 mm 0.00 in/hr0.0 mm/hr 0.00 in0.0 mm
05:10 AM 5.0°F-15.0°C -7.3°F-21.8°C 56% Calm Calm -- 30.71 in1040.0 mb 0.00 in0.0 mm 0.00 in/hr0.0 mm/hr 0.00 in0.0 mm
05:09 AM 4.6°F-15.2°C -7.3°F-21.8°C 57% Calm Calm -- 30.71 in1040.0 mb 0.00 in0.0 mm 0.00 in/hr0.0 mm/hr 0.00 in0.0 mm
05:08 AM 4.6°F-15.2°C -7.3°F-21.8°C 57% Calm Calm -- 30.71 in1040.0 mb 0.00 in0.0 mm 0.00 in/hr0.0 mm/hr 0.00 in0.0 mm
05:07 AM 4.6°F-15.2°C -7.3°F-21.8°C 57% Calm Calm -- 30.71 in1040.0 mb 0.00 in0.0 mm 0.00 in/hr0.0 mm/hr 0.00 in0.0 mm
05:06 AM 4.6°F-15.2°C -7.3°F-21.8°C 57% Calm Calm -- 30.71 in1040.0 mb 0.00 in0.0 mm 0.00 in/hr0.0 mm/hr 0.00 in0.0 mm
05:05 AM 4.6°F-15.2°C -7.3°F-21.8°C 57% Calm Calm -- 30.71 in1040.0 mb 0.00 in0.0 mm 0.00 in/hr0.0 mm/hr 0.00 in0.0 mm
05:04 AM 4.6°F-15.2°C -7.3°F-21.8°C 57% Calm Calm -- 30.71 in1040.0 mb 0.00 in0.0 mm 0.00 in/hr0.0 mm/hr 0.00 in0.0 mm
05:03 AM 4.6°F-15.2°C -7.3°F-21.8°C 57% Calm Calm -- 30.71 in1040.0 mb 0.00 in0.0 mm 0.00 in/hr0.0 mm/hr 0.00 in0.0 mm
05:02 AM 4.6°F-15.2°C -7.3°F-21.8°C 57% Calm Calm -- 30.71 in1040.0 mb 0.00 in0.0 mm 0.00 in/hr0.0 mm/hr 0.00 in0.0 mm
05:01 AM 4.6°F-15.2°C -7.3°F-21.8°C 57% Calm Calm -- 30.70 in1039.6 mb 0.00 in0.0 mm 0.00 in/hr0.0 mm/hr 0.00 in0.0 mm
05:00 AM 4.6°F-15.2°C -7.3°F-21.8°C 57% Calm Calm -- 30.70 in1039.6 mb 0.00 in0.0 mm 0.00 in/hr0.0 mm/hr 0.00 in0.0 mm
04:59 AM 4.6°F-15.2°C -7.3°F-21.8°C 57% Calm Calm -- 30.70 in1039.6 mb 0.00 in0.0 mm 0.00 in/hr0.0 mm/hr 0.00 in0.0 mm
04:58 AM 4.6°F-15.2°C -7.3°F-21.8°C 57% Calm Calm -- 30.70 in1039.6 mb 0.00 in0.0 mm 0.00 in/hr0.0 mm/hr 0.00 in0.0 mm
04:57 AM 4.5°F-15.3°C -7.4°F-21.9°C 57% Calm Calm -- 30.71 in1040.0 mb 0.00 in0.0 mm 0.00 in/hr0.0 mm/hr 0.00 in0.0 mm
04:56 AM 4.5°F-15.3°C -7.4°F-21.9°C 57% Calm Calm -- 30.70 in1039.6 mb 0.00 in0.0 mm 0.00 in/hr0.0 mm/hr 0.00 in0.0 mm
04:55 AM 4.5°F-15.3°C -7.4°F-21.9°C 57% Calm Calm -- 30.70 in1039.6 mb 0.00 in0.0 mm 0.00 in/hr0.0 mm/hr 0.00 in0.0 mm
04:54 AM 4.5°F-15.3°C -7.4°F-21.9°C 57% Calm Calm -- 30.71 in1040.0 mb 0.00 in0.0 mm 0.00 in/hr0.0 mm/hr 0.00 in0.0 mm
04:53 AM 4.1°F-15.5°C -7.8°F-22.1°C 57% Calm Calm -- 30.70 in1039.6 mb 0.00 in0.0 mm 0.00 in/hr0.0 mm/hr 0.00 in0.0 mm
04:52 AM 4.3°F-15.4°C -7.6°F-22.0°C 57% Calm Calm -- 30.71 in1040.0 mb 0.00 in0.0 mm 0.00 in/hr0.0 mm/hr 0.00 in0.0 mm
04:51 AM 4.1°F-15.5°C -7.8°F-22.1°C 57% Calm Calm -- 30.70 in1039.6 mb 0.00 in0.0 mm 0.00 in/hr0.0 mm/hr 0.00 in0.0 mm
04:50 AM 4.1°F-15.5°C -7.8°F-22.1°C 57% Calm Calm -- 30.71 in1040.0 mb 0.00 in0.0 mm 0.00 in/hr0.0 mm/hr 0.00 in0.0 mm
04:49 AM 4.3°F-15.4°C -7.6°F-22.0°C 57% Calm Calm -- 30.70 in1039.6 mb 0.00 in0.0 mm 0.00 in/hr0.0 mm/hr 0.00 in0.0 mm
04:48 AM 4.3°F-15.4°C -7.6°F-22.0°C 57% Calm Calm -- 30.70 in1039.6 mb 0.00 in0.0 mm 0.00 in/hr0.0 mm/hr 0.00 in0.0 mm
04:47 AM 4.5°F-15.3°C -7.4°F-21.9°C 57% Calm Calm -- 30.70 in1039.6 mb 0.00 in0.0 mm 0.00 in/hr0.0 mm/hr 0.00 in0.0 mm
04:46 AM 4.5°F-15.3°C -7.4°F-21.9°C 57% Calm Calm -- 30.70 in1039.6 mb 0.00 in0.0 mm 0.00 in/hr0.0 mm/hr 0.00 in0.0 mm
04:45 AM 4.5°F-15.3°C -7.4°F-21.9°C 57% Calm Calm -- 30.70 in1039.6 mb 0.00 in0.0 mm 0.00 in/hr0.0 mm/hr 0.00 in0.0 mm
04:44 AM 4.5°F-15.3°C -7.4°F-21.9°C 57% Calm Calm 0.9 mph1.4 kmh 30.70 in1039.6 mb 0.00 in0.0 mm 0.00 in/hr0.0 mm/hr 0.00 in0.0 mm
04:43 AM 4.5°F-15.3°C -7.4°F-21.9°C 57% 0.2 mph SW0.3 kmh SW 1.7 mph2.7 kmh 30.70 in1039.6 mb 0.00 in0.0 mm 0.00 in/hr0.0 mm/hr 0.00 in0.0 mm
04:42 AM 4.3°F-15.4°C -7.6°F-22.0°C 57% 0.4 mph SW0.6 kmh SW 1.7 mph2.7 kmh 30.70 in1039.6 mb 0.00 in0.0 mm 0.00 in/hr0.0 mm/hr 0.00 in0.0 mm
04:41 AM 4.5°F-15.3°C -7.4°F-21.9°C 57% 0.4 mph SW0.6 kmh SW 1.7 mph2.7 kmh 30.70 in1039.6 mb 0.00 in0.0 mm 0.00 in/hr0.0 mm/hr 0.00 in0.0 mm
04:40 AM 4.5°F-15.3°C -7.4°F-21.9°C 57% 0.4 mph SW0.6 kmh SW 1.7 mph2.7 kmh 30.70 in1039.6 mb 0.00 in0.0 mm 0.00 in/hr0.0 mm/hr 0.00 in0.0 mm
04:39 AM 4.3°F-15.4°C -7.6°F-22.0°C 57% 0.4 mph SW0.6 kmh SW 1.7 mph2.7 kmh 30.70 in1039.6 mb 0.00 in0.0 mm 0.00 in/hr0.0 mm/hr 0.00 in0.0 mm
04:38 AM 4.3°F-15.4°C -7.6°F-22.0°C 57% 0.4 mph SW0.6 kmh SW 1.7 mph2.7 kmh 30.70 in1039.6 mb 0.00 in0.0 mm 0.00 in/hr0.0 mm/hr 0.00 in0.0 mm
04:37 AM 4.1°F-15.5°C -7.8°F-22.1°C 57% 0.4 mph SW0.6 kmh SW 1.7 mph2.7 kmh 30.70 in1039.6 mb 0.00 in0.0 mm 0.00 in/hr0.0 mm/hr 0.00 in0.0 mm
04:36 AM 4.1°F-15.5°C -7.8°F-22.1°C 57% 0.4 mph SW0.6 kmh SW 1.7 mph2.7 kmh 30.71 in1040.0 mb 0.00 in0.0 mm 0.00 in/hr0.0 mm/hr 0.00 in0.0 mm
04:35 AM 3.9°F-15.6°C -8.0°F-22.2°C 57% 0.4 mph SW0.6 kmh SW 1.7 mph2.7 kmh 30.71 in1040.0 mb 0.00 in0.0 mm 0.00 in/hr0.0 mm/hr 0.00 in0.0 mm
04:34 AM 3.7°F-15.7°C -8.1°F-22.3°C 57% 0.4 mph SW0.6 kmh SW 1.7 mph2.7 kmh 30.71 in1040.0 mb 0.00 in0.0 mm 0.00 in/hr0.0 mm/hr 0.00 in0.0 mm
04:33 AM 3.9°F-15.6°C -8.0°F-22.2°C 57% 0.2 mph SW0.3 kmh SW 1.7 mph2.7 kmh 30.71 in1040.0 mb 0.00 in0.0 mm 0.00 in/hr0.0 mm/hr 0.00 in0.0 mm
04:32 AM 4.1°F-15.5°C -7.8°F-22.1°C 57% Calm Calm -- 30.71 in1040.0 mb 0.00 in0.0 mm 0.00 in/hr0.0 mm/hr 0.00 in0.0 mm
04:31 AM 3.9°F-15.6°C -8.0°F-22.2°C 57% Calm Calm -- 30.71 in1040.0 mb 0.00 in0.0 mm 0.00 in/hr0.0 mm/hr 0.00 in0.0 mm
04:30 AM 3.9°F-15.6°C -8.0°F-22.2°C 57% Calm Calm -- 30.71 in1040.0 mb 0.00 in0.0 mm 0.00 in/hr0.0 mm/hr 0.00 in0.0 mm
04:29 AM 3.9°F-15.6°C -8.0°F-22.2°C 57% Calm Calm -- 30.71 in1040.0 mb 0.00 in0.0 mm 0.00 in/hr0.0 mm/hr 0.00 in0.0 mm
04:28 AM 3.9°F-15.6°C -8.0°F-22.2°C 57% Calm Calm -- 30.71 in1040.0 mb 0.00 in0.0 mm 0.00 in/hr0.0 mm/hr 0.00 in0.0 mm
04:27 AM 3.7°F-15.7°C -8.1°F-22.3°C 57% Calm Calm -- 30.71 in1040.0 mb 0.00 in0.0 mm 0.00 in/hr0.0 mm/hr 0.00 in0.0 mm
04:26 AM 3.7°F-15.7°C -8.1°F-22.3°C 57% Calm Calm -- 30.71 in1040.0 mb 0.00 in0.0 mm 0.00 in/hr0.0 mm/hr 0.00 in0.0 mm
04:25 AM 3.6°F-15.8°C -8.3°F-22.4°C 57% Calm Calm -- 30.72 in1040.3 mb 0.00 in0.0 mm 0.00 in/hr0.0 mm/hr 0.00 in0.0 mm
04:24 AM 3.6°F-15.8°C -8.3°F-22.4°C 57% Calm Calm -- 30.72 in1040.3 mb 0.00 in0.0 mm 0.00 in/hr0.0 mm/hr 0.00 in0.0 mm
04:23 AM 3.6°F-15.8°C -8.3°F-22.4°C 57% Calm Calm -- 30.72 in1040.3 mb 0.00 in0.0 mm 0.00 in/hr0.0 mm/hr 0.00 in0.0 mm
04:22 AM 3.6°F-15.8°C -8.3°F-22.4°C 57% Calm Calm -- 30.71 in1040.0 mb 0.00 in0.0 mm 0.00 in/hr0.0 mm/hr 0.00 in0.0 mm
04:21 AM 3.4°F-15.9°C -8.8°F-22.7°C 56% Calm Calm -- 30.72 in1040.3 mb 0.00 in0.0 mm 0.00 in/hr0.0 mm/hr 0.00 in0.0 mm
04:20 AM 3.2°F-16.0°C -9.0°F-22.8°C 56% Calm Calm -- 30.71 in1040.0 mb 0.00 in0.0 mm 0.00 in/hr0.0 mm/hr 0.00 in0.0 mm
04:19 AM 3.0°F-16.1°C -8.8°F-22.7°C 57% Calm Calm -- 30.71 in1040.0 mb 0.00 in0.0 mm 0.00 in/hr0.0 mm/hr 0.00 in0.0 mm
04:18 AM 3.0°F-16.1°C -8.8°F-22.7°C 57% Calm Calm -- 30.72 in1040.3 mb 0.00 in0.0 mm 0.00 in/hr0.0 mm/hr 0.00 in0.0 mm
04:17 AM 3.0°F-16.1°C -8.8°F-22.7°C 57% Calm Calm -- 30.72 in1040.3 mb 0.00 in0.0 mm 0.00 in/hr0.0 mm/hr 0.00 in0.0 mm
04:16 AM 3.0°F-16.1°C -8.8°F-22.7°C 57% Calm Calm -- 30.71 in1040.0 mb 0.00 in0.0 mm 0.00 in/hr0.0 mm/hr 0.00 in0.0 mm
04:15 AM 2.8°F-16.2°C -9.0°F-22.8°C 57% Calm Calm -- 30.71 in1040.0 mb 0.00 in0.0 mm 0.00 in/hr0.0 mm/hr 0.00 in0.0 mm
04:14 AM 2.8°F-16.2°C -9.0°F-22.8°C 57% Calm Calm -- 30.72 in1040.3 mb 0.00 in0.0 mm 0.00 in/hr0.0 mm/hr 0.00 in0.0 mm
04:13 AM 2.7°F-16.3°C -9.1°F-22.8°C 57% Calm Calm -- 30.72 in1040.3 mb 0.00 in0.0 mm 0.00 in/hr0.0 mm/hr 0.00 in0.0 mm
04:12 AM 2.5°F-16.4°C -9.3°F-22.9°C 57% Calm Calm -- 30.72 in1040.3 mb 0.00 in0.0 mm 0.00 in/hr0.0 mm/hr 0.00 in0.0 mm
04:11 AM 2.5°F-16.4°C -9.3°F-22.9°C 57% Calm Calm -- 30.72 in1040.3 mb 0.00 in0.0 mm 0.00 in/hr0.0 mm/hr 0.00 in0.0 mm
04:10 AM 2.5°F-16.4°C -9.3°F-22.9°C 57% Calm Calm -- 30.72 in1040.3 mb 0.00 in0.0 mm 0.00 in/hr0.0 mm/hr 0.00 in0.0 mm
04:09 AM 2.7°F-16.3°C -9.1°F-22.8°C 57% Calm Calm -- 30.72 in1040.3 mb 0.00 in0.0 mm 0.00 in/hr0.0 mm/hr 0.00 in0.0 mm
04:08 AM 2.7°F-16.3°C -9.1°F-22.8°C 57% Calm Calm -- 30.72 in1040.3 mb 0.00 in0.0 mm 0.00 in/hr0.0 mm/hr 0.00 in0.0 mm
04:07 AM 2.5°F-16.4°C -9.3°F-22.9°C 57% Calm Calm -- 30.71 in1040.0 mb 0.00 in0.0 mm 0.00 in/hr0.0 mm/hr 0.00 in0.0 mm
04:06 AM 2.5°F-16.4°C -9.3°F-22.9°C 57% Calm Calm -- 30.71 in1040.0 mb 0.00 in0.0 mm 0.00 in/hr0.0 mm/hr 0.00 in0.0 mm
04:05 AM 2.5°F-16.4°C -9.3°F-22.9°C 57% Calm Calm -- 30.72 in1040.3 mb 0.00 in0.0 mm 0.00 in/hr0.0 mm/hr 0.00 in0.0 mm
04:04 AM 2.5°F-16.4°C -9.3°F-22.9°C 57% Calm Calm -- 30.71 in1040.0 mb 0.00 in0.0 mm 0.00 in/hr0.0 mm/hr 0.00 in0.0 mm
04:03 AM 2.5°F-16.4°C -9.3°F-22.9°C 57% Calm Calm -- 30.72 in1040.3 mb 0.00 in0.0 mm 0.00 in/hr0.0 mm/hr 0.00 in0.0 mm
04:02 AM 2.5°F-16.4°C -9.3°F-22.9°C 57% Calm Calm -- 30.72 in1040.3 mb 0.00 in0.0 mm 0.00 in/hr0.0 mm/hr 0.00 in0.0 mm
04:01 AM 2.8°F-16.2°C -9.0°F-22.8°C 57% Calm Calm -- 30.72 in1040.3 mb 0.00 in0.0 mm 0.00 in/hr0.0 mm/hr 0.00 in0.0 mm
04:00 AM 2.8°F-16.2°C -9.0°F-22.8°C 57% Calm Calm -- 30.71 in1040.0 mb 0.00 in0.0 mm 0.00 in/hr0.0 mm/hr 0.00 in0.0 mm
03:59 AM 2.8°F-16.2°C -9.0°F-22.8°C 57% Calm Calm -- 30.71 in1040.0 mb 0.00 in0.0 mm 0.00 in/hr0.0 mm/hr 0.00 in0.0 mm
03:58 AM 2.8°F-16.2°C -9.3°F-22.9°C 56% Calm Calm -- 30.71 in1040.0 mb 0.00 in0.0 mm 0.00 in/hr0.0 mm/hr 0.00 in0.0 mm
03:57 AM 2.5°F-16.4°C -9.7°F-23.2°C 56% Calm Calm -- 30.72 in1040.3 mb 0.00 in0.0 mm 0.00 in/hr0.0 mm/hr 0.00 in0.0 mm
03:56 AM 2.5°F-16.4°C -9.7°F-23.2°C 56% Calm Calm -- 30.71 in1040.0 mb 0.00 in0.0 mm 0.00 in/hr0.0 mm/hr 0.00 in0.0 mm
03:55 AM 2.3°F-16.5°C -9.8°F-23.2°C 56% Calm Calm -- 30.71 in1040.0 mb 0.00 in0.0 mm 0.00 in/hr0.0 mm/hr 0.00 in0.0 mm
03:54 AM 2.3°F-16.5°C -9.8°F-23.2°C 56% Calm Calm -- 30.71 in1040.0 mb 0.00 in0.0 mm 0.00 in/hr0.0 mm/hr 0.00 in0.0 mm
03:53 AM 2.5°F-16.4°C -9.3°F-22.9°C 57% Calm Calm -- 30.72 in1040.3 mb 0.00 in0.0 mm 0.00 in/hr0.0 mm/hr 0.00 in0.0 mm
03:52 AM 3.0°F-16.1°C -8.8°F-22.7°C 57% Calm Calm -- 30.71 in1040.0 mb 0.00 in0.0 mm 0.00 in/hr0.0 mm/hr 0.00 in0.0 mm
03:51 AM 3.0°F-16.1°C -8.8°F-22.7°C 57% Calm Calm -- 30.71 in1040.0 mb 0.00 in0.0 mm 0.00 in/hr0.0 mm/hr 0.00 in0.0 mm
03:50 AM 3.2°F-16.0°C -9.0°F-22.8°C 56% Calm Calm -- 30.71 in1040.0 mb 0.00 in0.0 mm 0.00 in/hr0.0 mm/hr 0.00 in0.0 mm
03:49 AM 3.2°F-16.0°C -9.0°F-22.8°C 56% Calm Calm -- 30.72 in1040.3 mb 0.00 in0.0 mm 0.00 in/hr0.0 mm/hr 0.00 in0.0 mm
03:48 AM 3.2°F-16.0°C -9.0°F-22.8°C 56% Calm Calm -- 30.71 in1040.0 mb 0.00 in0.0 mm 0.00 in/hr0.0 mm/hr 0.00 in0.0 mm
03:47 AM 3.4°F-15.9°C -8.8°F-22.7°C 56% Calm Calm -- 30.71 in1040.0 mb 0.00 in0.0 mm 0.00 in/hr0.0 mm/hr 0.00 in0.0 mm
03:46 AM 3.6°F-15.8°C -8.7°F-22.6°C 56% Calm Calm -- 30.71 in1040.0 mb 0.00 in0.0 mm 0.00 in/hr0.0 mm/hr 0.00 in0.0 mm
03:45 AM 3.4°F-15.9°C -8.8°F-22.7°C 56% Calm Calm -- 30.71 in1040.0 mb 0.00 in0.0 mm 0.00 in/hr0.0 mm/hr 0.00 in0.0 mm
03:44 AM 3.4°F-15.9°C -8.8°F-22.7°C 56% Calm Calm -- 30.71 in1040.0 mb 0.00 in0.0 mm 0.00 in/hr0.0 mm/hr 0.00 in0.0 mm
03:43 AM 3.4°F-15.9°C -8.8°F-22.7°C 56% Calm Calm -- 30.71 in1040.0 mb 0.00 in0.0 mm 0.00 in/hr0.0 mm/hr 0.00 in0.0 mm
03:42 AM 3.2°F-16.0°C -9.0°F-22.8°C 56% Calm Calm -- 30.71 in1040.0 mb 0.00 in0.0 mm 0.00 in/hr0.0 mm/hr 0.00 in0.0 mm
03:41 AM 3.4°F-15.9°C -8.8°F-22.7°C 56% Calm Calm -- 30.71 in1040.0 mb 0.00 in0.0 mm 0.00 in/hr0.0 mm/hr 0.00 in0.0 mm
03:40 AM 3.4°F-15.9°C -8.8°F-22.7°C 56% Calm Calm -- 30.71 in1040.0 mb 0.00 in0.0 mm 0.00 in/hr0.0 mm/hr 0.00 in0.0 mm
03:39 AM 3.4°F-15.9°C -8.8°F-22.7°C 56% Calm Calm -- 30.71 in1040.0 mb 0.00 in0.0 mm 0.00 in/hr0.0 mm/hr 0.00 in0.0 mm
03:38 AM 3.4°F-15.9°C -8.8°F-22.7°C 56% Calm Calm -- 30.71 in1040.0 mb 0.00 in0.0 mm 0.00 in/hr0.0 mm/hr 0.00 in0.0 mm
03:37 AM 3.6°F-15.8°C -8.7°F-22.6°C 56% Calm Calm -- 30.71 in1040.0 mb 0.00 in0.0 mm 0.00 in/hr0.0 mm/hr 0.00 in0.0 mm
03:36 AM 3.4°F-15.9°C -9.2°F-22.9°C 55% Calm Calm -- 30.71 in1040.0 mb 0.00 in0.0 mm 0.00 in/hr0.0 mm/hr 0.00 in0.0 mm
03:35 AM 3.4°F-15.9°C -9.2°F-22.9°C 55% Calm Calm -- 30.71 in1040.0 mb 0.00 in0.0 mm 0.00 in/hr0.0 mm/hr 0.00 in0.0 mm
03:34 AM 3.4°F-15.9°C -9.2°F-22.9°C 55% Calm Calm -- 30.71 in1040.0 mb 0.00 in0.0 mm 0.00 in/hr0.0 mm/hr 0.00 in0.0 mm
03:33 AM 3.4°F-15.9°C -8.8°F-22.7°C 56% Calm Calm -- 30.71 in1040.0 mb 0.00 in0.0 mm 0.00 in/hr0.0 mm/hr 0.00 in0.0 mm
03:32 AM 3.6°F-15.8°C -8.7°F-22.6°C 56% Calm Calm -- 30.71 in1040.0 mb 0.00 in0.0 mm 0.00 in/hr0.0 mm/hr 0.00 in0.0 mm
03:31 AM 3.6°F-15.8°C -8.7°F-22.6°C 56% Calm Calm -- 30.71 in1040.0 mb 0.00 in0.0 mm 0.00 in/hr0.0 mm/hr 0.00 in0.0 mm
03:30 AM 3.7°F-15.7°C -8.5°F-22.5°C 56% Calm Calm -- 30.71 in1040.0 mb 0.00 in0.0 mm 0.00 in/hr0.0 mm/hr 0.00 in0.0 mm
03:29 AM 4.1°F-15.5°C -8.1°F-22.3°C 56% Calm Calm -- 30.71 in1040.0 mb 0.00 in0.0 mm 0.00 in/hr0.0 mm/hr 0.00 in0.0 mm
03:28 AM 4.3°F-15.4°C -8.0°F-22.2°C 56% Calm Calm -- 30.70 in1039.6 mb 0.00 in0.0 mm 0.00 in/hr0.0 mm/hr 0.00 in0.0 mm
03:27 AM 4.3°F-15.4°C -8.0°F-22.2°C 56% Calm Calm -- 30.71 in1040.0 mb 0.00 in0.0 mm 0.00 in/hr0.0 mm/hr 0.00 in0.0 mm
03:26 AM 4.3°F-15.4°C -8.0°F-22.2°C 56% Calm Calm -- 30.71 in1040.0 mb 0.00 in0.0 mm 0.00 in/hr0.0 mm/hr 0.00 in0.0 mm
03:25 AM 4.3°F-15.4°C -8.0°F-22.2°C 56% Calm Calm -- 30.71 in1040.0 mb 0.00 in0.0 mm 0.00 in/hr0.0 mm/hr 0.00 in0.0 mm
03:24 AM 4.3°F-15.4°C -8.0°F-22.2°C 56% Calm Calm -- 30.71 in1040.0 mb 0.00 in0.0 mm 0.00 in/hr0.0 mm/hr 0.00 in0.0 mm
03:23 AM 4.3°F-15.4°C -8.0°F-22.2°C 56% Calm Calm -- 30.71 in1040.0 mb 0.00 in0.0 mm 0.00 in/hr0.0 mm/hr 0.00 in0.0 mm
03:22 AM 4.1°F-15.5°C -8.1°F-22.3°C 56% Calm Calm -- 30.71 in1040.0 mb 0.00 in0.0 mm 0.00 in/hr0.0 mm/hr 0.00 in0.0 mm
03:21 AM 3.7°F-15.7°C -8.5°F-22.5°C 56% Calm Calm -- 30.71 in1040.0 mb 0.00 in0.0 mm 0.00 in/hr0.0 mm/hr 0.00 in0.0 mm
03:20 AM 3.6°F-15.8°C -8.7°F-22.6°C 56% Calm Calm -- 30.71 in1040.0 mb 0.00 in0.0 mm 0.00 in/hr0.0 mm/hr 0.00 in0.0 mm
03:19 AM 3.7°F-15.7°C -8.5°F-22.5°C 56% Calm Calm -- 30.71 in1040.0 mb 0.00 in0.0 mm 0.00 in/hr0.0 mm/hr 0.00 in0.0 mm
03:18 AM 3.7°F-15.7°C -8.5°F-22.5°C 56% Calm Calm -- 30.71 in1040.0 mb 0.00 in0.0 mm 0.00 in/hr0.0 mm/hr 0.00 in0.0 mm
03:17 AM 3.7°F-15.7°C -8.5°F-22.5°C 56% Calm Calm -- 30.71 in1040.0 mb 0.00 in0.0 mm 0.00 in/hr0.0 mm/hr 0.00 in0.0 mm
03:16 AM 3.7°F-15.7°C -8.5°F-22.5°C 56% Calm Calm -- 30.71 in1040.0 mb 0.00 in0.0 mm 0.00 in/hr0.0 mm/hr 0.00 in0.0 mm
03:15 AM 3.9°F-15.6°C -8.3°F-22.4°C 56% Calm Calm -- 30.71 in1040.0 mb 0.00 in0.0 mm 0.00 in/hr0.0 mm/hr 0.00 in0.0 mm
03:14 AM 3.9°F-15.6°C -8.3°F-22.4°C 56% Calm Calm -- 30.72 in1040.3 mb 0.00 in0.0 mm 0.00 in/hr0.0 mm/hr 0.00 in0.0 mm
03:13 AM 3.9°F-15.6°C -8.3°F-22.4°C 56% Calm Calm -- 30.71 in1040.0 mb 0.00 in0.0 mm 0.00 in/hr0.0 mm/hr 0.00 in0.0 mm
03:12 AM 3.9°F-15.6°C -8.3°F-22.4°C 56% Calm Calm -- 30.73 in1040.6 mb 0.00 in0.0 mm 0.00 in/hr0.0 mm/hr 0.00 in0.0 mm
03:11 AM 4.1°F-15.5°C -8.1°F-22.3°C 56% Calm Calm -- 30.72 in1040.3 mb 0.00 in0.0 mm 0.00 in/hr0.0 mm/hr 0.00 in0.0 mm
03:10 AM 4.1°F-15.5°C -8.1°F-22.3°C 56% Calm Calm -- 30.72 in1040.3 mb 0.00 in0.0 mm 0.00 in/hr0.0 mm/hr 0.00 in0.0 mm
03:09 AM 4.3°F-15.4°C -8.0°F-22.2°C 56% Calm Calm -- 30.72 in1040.3 mb 0.00 in0.0 mm 0.00 in/hr0.0 mm/hr 0.00 in0.0 mm
03:08 AM 4.1°F-15.5°C -8.1°F-22.3°C 56% Calm Calm -- 30.72 in1040.3 mb 0.00 in0.0 mm 0.00 in/hr0.0 mm/hr 0.00 in0.0 mm
03:07 AM 3.4°F-15.9°C -9.2°F-22.9°C 55% Calm Calm -- 30.73 in1040.6 mb 0.00 in0.0 mm 0.00 in/hr0.0 mm/hr 0.00 in0.0 mm
03:06 AM 3.4°F-15.9°C -9.2°F-22.9°C 55% Calm Calm -- 30.73 in1040.6 mb 0.00 in0.0 mm 0.00 in/hr0.0 mm/hr 0.00 in0.0 mm
03:05 AM 3.4°F-15.9°C -9.2°F-22.9°C 55% Calm Calm -- 30.73 in1040.6 mb 0.00 in0.0 mm 0.00 in/hr0.0 mm/hr 0.00 in0.0 mm
03:04 AM 3.4°F-15.9°C -9.2°F-22.9°C 55% Calm Calm -- 30.73 in1040.6 mb 0.00 in0.0 mm 0.00 in/hr0.0 mm/hr 0.00 in0.0 mm
03:03 AM 3.4°F-15.9°C -9.2°F-22.9°C 55% Calm Calm -- 30.73 in1040.6 mb 0.00 in0.0 mm 0.00 in/hr0.0 mm/hr 0.00 in0.0 mm
03:02 AM 3.4°F-15.9°C -9.2°F-22.9°C 55% Calm Calm -- 30.73 in1040.6 mb 0.00 in0.0 mm 0.00 in/hr0.0 mm/hr 0.00 in0.0 mm
03:01 AM 3.4°F-15.9°C -9.2°F-22.9°C 55% Calm Calm -- 30.73 in1040.6 mb 0.00 in0.0 mm 0.00 in/hr0.0 mm/hr 0.00 in0.0 mm
03:00 AM 3.4°F-15.9°C -9.2°F-22.9°C 55% Calm Calm -- 30.74 in1041.0 mb 0.00 in0.0 mm 0.00 in/hr0.0 mm/hr 0.00 in0.0 mm
02:59 AM 3.4°F-15.9°C -9.2°F-22.9°C 55% Calm Calm -- 30.74 in1041.0 mb 0.00 in0.0 mm 0.00 in/hr0.0 mm/hr 0.00 in0.0 mm
02:58 AM 3.4°F-15.9°C -9.2°F-22.9°C 55% Calm Calm -- 30.73 in1040.6 mb 0.00 in0.0 mm 0.00 in/hr0.0 mm/hr 0.00 in0.0 mm
02:57 AM 3.4°F-15.9°C -9.2°F-22.9°C 55% Calm Calm -- 30.74 in1041.0 mb 0.00 in0.0 mm 0.00 in/hr0.0 mm/hr 0.00 in0.0 mm
02:56 AM 3.6°F-15.8°C -8.7°F-22.6°C 56% Calm Calm -- 30.74 in1041.0 mb 0.00 in0.0 mm 0.00 in/hr0.0 mm/hr 0.00 in0.0 mm
02:55 AM 3.6°F-15.8°C -8.7°F-22.6°C 56% Calm Calm -- 30.74 in1041.0 mb 0.00 in0.0 mm 0.00 in/hr0.0 mm/hr 0.00 in0.0 mm
02:54 AM 3.6°F-15.8°C -8.7°F-22.6°C 56% Calm Calm -- 30.74 in1041.0 mb 0.00 in0.0 mm 0.00 in/hr0.0 mm/hr 0.00 in0.0 mm
02:53 AM 3.6°F-15.8°C -8.7°F-22.6°C 56% Calm Calm -- 30.74 in1041.0 mb 0.00 in0.0 mm 0.00 in/hr0.0 mm/hr 0.00 in0.0 mm
02:52 AM 3.6°F-15.8°C -8.7°F-22.6°C 56% Calm Calm -- 30.74 in1041.0 mb 0.00 in0.0 mm 0.00 in/hr0.0 mm/hr 0.00 in0.0 mm
02:51 AM 3.7°F-15.7°C -8.5°F-22.5°C 56% Calm Calm -- 30.74 in1041.0 mb 0.00 in0.0 mm 0.00 in/hr0.0 mm/hr 0.00 in0.0 mm
02:50 AM 3.7°F-15.7°C -8.5°F-22.5°C 56% Calm Calm -- 30.74 in1041.0 mb 0.00 in0.0 mm 0.00 in/hr0.0 mm/hr 0.00 in0.0 mm
02:49 AM 3.6°F-15.8°C -8.7°F-22.6°C 56% Calm Calm -- 30.74 in1041.0 mb 0.00 in0.0 mm 0.00 in/hr0.0 mm/hr 0.00 in0.0 mm
02:48 AM 3.6°F-15.8°C -8.7°F-22.6°C 56% Calm Calm 0.9 mph1.4 kmh 30.74 in1041.0 mb 0.00 in0.0 mm 0.00 in/hr0.0 mm/hr 0.00 in0.0 mm
02:47 AM 3.7°F-15.7°C -8.9°F-22.7°C 55% 0.1 mph S0.2 kmh S 0.9 mph1.4 kmh 30.74 in1041.0 mb 0.00 in0.0 mm 0.00 in/hr0.0 mm/hr 0.00 in0.0 mm
02:46 AM 3.7°F-15.7°C -8.9°F-22.7°C 55% 0.3 mph S0.5 kmh S 1.7 mph2.7 kmh 30.74 in1041.0 mb 0.00 in0.0 mm 0.00 in/hr0.0 mm/hr 0.00 in0.0 mm
02:45 AM 3.6°F-15.8°C -9.0°F-22.8°C 55% 0.3 mph S0.5 kmh S 1.7 mph2.7 kmh 30.74 in1041.0 mb 0.00 in0.0 mm 0.00 in/hr0.0 mm/hr 0.00 in0.0 mm
02:44 AM 3.6°F-15.8°C -9.0°F-22.8°C 55% 0.3 mph S0.5 kmh S 1.7 mph2.7 kmh 30.74 in1041.0 mb 0.00 in0.0 mm 0.00 in/hr0.0 mm/hr 0.00 in0.0 mm
02:43 AM 3.4°F-15.9°C -9.2°F-22.9°C 55% 0.3 mph S0.5 kmh S 1.7 mph2.7 kmh 30.74 in1041.0 mb 0.00 in0.0 mm 0.00 in/hr0.0 mm/hr 0.00 in0.0 mm
02:42 AM 3.4°F-15.9°C -9.2°F-22.9°C 55% 0.3 mph S0.5 kmh S 1.7 mph2.7 kmh 30.74 in1041.0 mb 0.00 in0.0 mm 0.00 in/hr0.0 mm/hr 0.00 in0.0 mm
02:41 AM 3.2°F-16.0°C -9.4°F-23.0°C 55% 0.4 mph S0.6 kmh S 1.7 mph2.7 kmh 30.74 in1041.0 mb 0.00 in0.0 mm 0.00 in/hr0.0 mm/hr 0.00 in0.0 mm
02:40 AM 3.2°F-16.0°C -9.4°F-23.0°C 55% 0.5 mph SSW0.8 kmh SSW 1.7 mph2.7 kmh 30.74 in1041.0 mb 0.00 in0.0 mm 0.00 in/hr0.0 mm/hr 0.00 in0.0 mm
02:39 AM 3.4°F-15.9°C -9.2°F-22.9°C 55% 0.8 mph WSW1.3 kmh WSW 2.6 mph4.2 kmh 30.74 in1041.0 mb 0.00 in0.0 mm 0.00 in/hr0.0 mm/hr 0.00 in0.0 mm
02:38 AM 3.4°F-15.9°C -9.2°F-22.9°C 55% 0.9 mph NW1.4 kmh NW 2.6 mph4.2 kmh 30.74 in1041.0 mb 0.00 in0.0 mm 0.00 in/hr0.0 mm/hr 0.00 in0.0 mm
02:37 AM 3.4°F-15.9°C -9.2°F-22.9°C 55% 0.8 mph NW1.3 kmh NW 2.6 mph4.2 kmh 30.74 in1041.0 mb 0.00 in0.0 mm 0.00 in/hr0.0 mm/hr 0.00 in0.0 mm
02:36 AM 3.4°F-15.9°C -9.2°F-22.9°C 55% 0.6 mph NW1.0 kmh NW 2.6 mph4.2 kmh 30.74 in1041.0 mb 0.00 in0.0 mm 0.00 in/hr0.0 mm/hr 0.00 in0.0 mm
02:35 AM 3.6°F-15.8°C -9.0°F-22.8°C 55% 0.7 mph NNW1.1 kmh NNW 2.6 mph4.2 kmh 30.74 in1041.0 mb 0.00 in0.0 mm 0.00 in/hr0.0 mm/hr 0.00 in0.0 mm
02:34 AM 3.6°F-15.8°C -9.0°F-22.8°C 55% 0.9 mph NNW1.4 kmh NNW 2.6 mph4.2 kmh 30.74 in1041.0 mb 0.00 in0.0 mm 0.00 in/hr0.0 mm/hr 0.00 in0.0 mm
02:33 AM 3.6°F-15.8°C -9.0°F-22.8°C 55% 0.9 mph NNW1.4 kmh NNW 2.6 mph4.2 kmh 30.74 in1041.0 mb 0.00 in0.0 mm 0.00 in/hr0.0 mm/hr 0.00 in0.0 mm
02:32 AM 3.6°F-15.8°C -9.0°F-22.8°C 55% 1.0 mph NNW1.6 kmh NNW 2.6 mph4.2 kmh 30.74 in1041.0 mb 0.00 in0.0 mm 0.00 in/hr0.0 mm/hr 0.00 in0.0 mm
02:31 AM 3.6°F-15.8°C -9.0°F-22.8°C 55% 0.9 mph NNW1.4 kmh NNW 2.6 mph4.2 kmh 30.74 in1041.0 mb 0.00 in0.0 mm 0.00 in/hr0.0 mm/hr 0.00 in0.0 mm
02:30 AM 3.6°F-15.8°C -9.0°F-22.8°C 55% 0.8 mph NNW1.3 kmh NNW 2.6 mph4.2 kmh 30.74 in1041.0 mb 0.00 in0.0 mm 0.00 in/hr0.0 mm/hr 0.00 in0.0 mm
02:29 AM 3.9°F-15.6°C -8.7°F-22.6°C 55% 0.5 mph N0.8 kmh N 1.7 mph2.7 kmh 30.73 in1040.6 mb 0.00 in0.0 mm 0.00 in/hr0.0 mm/hr 0.00 in0.0 mm
02:28 AM 3.9°F-15.6°C -8.7°F-22.6°C 55% 0.3 mph N0.5 kmh N 1.7 mph2.7 kmh 30.74 in1041.0 mb 0.00 in0.0 mm 0.00 in/hr0.0 mm/hr 0.00 in0.0 mm
02:27 AM 3.9°F-15.6°C -8.7°F-22.6°C 55% 0.3 mph N0.5 kmh N 1.7 mph2.7 kmh 30.74 in1041.0 mb 0.00 in0.0 mm 0.00 in/hr0.0 mm/hr 0.00 in0.0 mm
02:26 AM 3.9°F-15.6°C -8.7°F-22.6°C 55% 0.3 mph N0.5 kmh N 1.7 mph2.7 kmh 30.73 in1040.6 mb 0.00 in0.0 mm 0.00 in/hr0.0 mm/hr 0.00 in0.0 mm
02:25 AM 3.7°F-15.7°C -8.9°F-22.7°C 55% 0.3 mph N0.5 kmh N 1.7 mph2.7 kmh 30.74 in1041.0 mb 0.00 in0.0 mm 0.00 in/hr0.0 mm/hr 0.00 in0.0 mm
02:24 AM 3.7°F-15.7°C -8.9°F-22.7°C 55% 0.1 mph NW0.2 kmh NW 0.9 mph1.4 kmh 30.74 in1041.0 mb 0.00 in0.0 mm 0.00 in/hr0.0 mm/hr 0.00 in0.0 mm
02:23 AM 3.6°F-15.8°C -9.0°F-22.8°C 55% Calm Calm -- 30.74 in1041.0 mb 0.00 in0.0 mm 0.00 in/hr0.0 mm/hr 0.00 in0.0 mm
02:22 AM 3.7°F-15.7°C -8.9°F-22.7°C 55% Calm Calm -- 30.74 in1041.0 mb 0.00 in0.0 mm 0.00 in/hr0.0 mm/hr 0.00 in0.0 mm
02:21 AM 3.6°F-15.8°C -9.0°F-22.8°C 55% Calm Calm -- 30.74 in1041.0 mb 0.00 in0.0 mm 0.00 in/hr0.0 mm/hr 0.00 in0.0 mm
02:20 AM 3.6°F-15.8°C -9.0°F-22.8°C 55% Calm Calm -- 30.74 in1041.0 mb 0.00 in0.0 mm 0.00 in/hr0.0 mm/hr 0.00 in0.0 mm
02:19 AM 3.6°F-15.8°C -9.0°F-22.8°C 55% Calm Calm -- 30.74 in1041.0 mb 0.00 in0.0 mm 0.00 in/hr0.0 mm/hr 0.00 in0.0 mm
02:18 AM 3.6°F-15.8°C -9.0°F-22.8°C 55% Calm Calm -- 30.74 in1041.0 mb 0.00 in0.0 mm 0.00 in/hr0.0 mm/hr 0.00 in0.0 mm
02:17 AM 3.4°F-15.9°C -9.2°F-22.9°C 55% Calm Calm -- 30.74 in1041.0 mb 0.00 in0.0 mm 0.00 in/hr0.0 mm/hr 0.00 in0.0 mm
02:16 AM 3.4°F-15.9°C -9.2°F-22.9°C 55% Calm Calm -- 30.74 in1041.0 mb 0.00 in0.0 mm 0.00 in/hr0.0 mm/hr 0.00 in0.0 mm
02:15 AM 3.6°F-15.8°C -9.0°F-22.8°C 55% 0.1 mph W0.2 kmh W 0.9 mph1.4 kmh 30.75 in1041.3 mb 0.00 in0.0 mm 0.00 in/hr0.0 mm/hr 0.00 in0.0 mm
02:14 AM 3.7°F-15.7°C -8.9°F-22.7°C 55% 0.3 mph NW0.5 kmh NW 1.7 mph2.7 kmh 30.74 in1041.0 mb 0.00 in0.0 mm 0.00 in/hr0.0 mm/hr 0.00 in0.0 mm
02:13 AM 3.9°F-15.6°C -8.7°F-22.6°C 55% 0.4 mph NW0.6 kmh NW 1.7 mph2.7 kmh 30.75 in1041.3 mb 0.00 in0.0 mm 0.00 in/hr0.0 mm/hr 0.00 in0.0 mm
02:12 AM 4.3°F-15.4°C -8.0°F-22.2°C 56% 0.4 mph NW0.6 kmh NW 1.7 mph2.7 kmh 30.74 in1041.0 mb 0.00 in0.0 mm 0.00 in/hr0.0 mm/hr 0.00 in0.0 mm
02:11 AM 4.5°F-15.3°C -7.8°F-22.1°C 56% 0.4 mph NW0.6 kmh NW 1.7 mph2.7 kmh 30.74 in1041.0 mb 0.00 in0.0 mm 0.00 in/hr0.0 mm/hr 0.00 in0.0 mm
02:10 AM 4.5°F-15.3°C -7.8°F-22.1°C 56% 0.4 mph NW0.6 kmh NW 1.7 mph2.7 kmh 30.74 in1041.0 mb 0.00 in0.0 mm 0.00 in/hr0.0 mm/hr 0.00 in0.0 mm
02:09 AM 4.6°F-15.2°C -7.6°F-22.0°C 56% 0.4 mph NW0.6 kmh NW 1.7 mph2.7 kmh 30.75 in1041.3 mb 0.00 in0.0 mm 0.00 in/hr0.0 mm/hr 0.00 in0.0 mm
02:08 AM 4.6°F-15.2°C -7.6°F-22.0°C 56% 0.4 mph NW0.6 kmh NW 1.7 mph2.7 kmh 30.75 in1041.3 mb 0.00 in0.0 mm 0.00 in/hr0.0 mm/hr 0.00 in0.0 mm
02:07 AM 4.8°F-15.1°C -7.5°F-21.9°C 56% 0.6 mph WNW1.0 kmh WNW 1.7 mph2.7 kmh 30.75 in1041.3 mb 0.00 in0.0 mm 0.00 in/hr0.0 mm/hr 0.00 in0.0 mm
02:06 AM 4.8°F-15.1°C -7.5°F-21.9°C 56% 0.6 mph WNW1.0 kmh WNW 1.7 mph2.7 kmh 30.75 in1041.3 mb 0.00 in0.0 mm 0.00 in/hr0.0 mm/hr 0.00 in0.0 mm
02:05 AM 4.3°F-15.4°C -8.0°F-22.2°C 56% 0.5 mph WNW0.8 kmh WNW 1.7 mph2.7 kmh 30.75 in1041.3 mb 0.00 in0.0 mm 0.00 in/hr0.0 mm/hr 0.00 in0.0 mm
02:04 AM 4.3°F-15.4°C -8.0°F-22.2°C 56% 0.3 mph WNW0.5 kmh WNW 1.7 mph2.7 kmh 30.75 in1041.3 mb 0.00 in0.0 mm 0.00 in/hr0.0 mm/hr 0.00 in0.0 mm
02:03 AM 4.5°F-15.3°C -7.8°F-22.1°C 56% 0.2 mph W0.3 kmh W 1.7 mph2.7 kmh 30.76 in1041.7 mb 0.00 in0.0 mm 0.00 in/hr0.0 mm/hr 0.00 in0.0 mm
02:02 AM 4.3°F-15.4°C -8.0°F-22.2°C 56% 0.2 mph W0.3 kmh W 1.7 mph2.7 kmh 30.76 in1041.7 mb 0.00 in0.0 mm 0.00 in/hr0.0 mm/hr 0.00 in0.0 mm
02:01 AM 4.3°F-15.4°C -8.0°F-22.2°C 56% 0.3 mph W0.5 kmh W 1.7 mph2.7 kmh 30.76 in1041.7 mb 0.00 in0.0 mm 0.00 in/hr0.0 mm/hr 0.00 in0.0 mm
02:00 AM 4.5°F-15.3°C -7.8°F-22.1°C 56% 0.4 mph W0.6 kmh W 1.7 mph2.7 kmh 30.75 in1041.3 mb 0.00 in0.0 mm 0.00 in/hr0.0 mm/hr 0.00 in0.0 mm
01:59 AM 4.3°F-15.4°C -8.3°F-22.4°C 55% 0.4 mph W0.6 kmh W 1.7 mph2.7 kmh 30.75 in1041.3 mb 0.00 in0.0 mm 0.00 in/hr0.0 mm/hr 0.00 in0.0 mm
01:58 AM 4.1°F-15.5°C -8.5°F-22.5°C 55% 0.3 mph WNW0.5 kmh WNW 1.7 mph2.7 kmh 30.75 in1041.3 mb 0.00 in0.0 mm 0.00 in/hr0.0 mm/hr 0.00 in0.0 mm
01:57 AM 3.9°F-15.6°C -8.7°F-22.6°C 55% 0.2 mph NW0.3 kmh NW 1.7 mph2.7 kmh 30.75 in1041.3 mb 0.00 in0.0 mm 0.00 in/hr0.0 mm/hr 0.00 in0.0 mm
01:56 AM 3.9°F-15.6°C -8.7°F-22.6°C 55% 0.2 mph NW0.3 kmh NW 1.7 mph2.7 kmh 30.75 in1041.3 mb 0.00 in0.0 mm 0.00 in/hr0.0 mm/hr 0.00 in0.0 mm
01:55 AM 3.9°F-15.6°C -8.7°F-22.6°C 55% 0.2 mph NW0.3 kmh NW 1.7 mph2.7 kmh 30.76 in1041.7 mb 0.00 in0.0 mm 0.00 in/hr0.0 mm/hr 0.00 in0.0 mm
01:54 AM 3.9°F-15.6°C -8.7°F-22.6°C 55% 0.2 mph NW0.3 kmh NW 1.7 mph2.7 kmh 30.76 in1041.7 mb 0.00 in0.0 mm 0.00 in/hr0.0 mm/hr 0.00 in0.0 mm
01:53 AM 3.9°F-15.6°C -8.7°F-22.6°C 55% 0.2 mph NW0.3 kmh NW 1.7 mph2.7 kmh 30.76 in1041.7 mb 0.00 in0.0 mm 0.00 in/hr0.0 mm/hr 0.00 in0.0 mm
01:52 AM 3.9°F-15.6°C -8.7°F-22.6°C 55% 0.2 mph NW0.3 kmh NW 1.7 mph2.7 kmh 30.76 in1041.7 mb 0.00 in0.0 mm 0.00 in/hr0.0 mm/hr 0.00 in0.0 mm
01:51 AM 3.9°F-15.6°C -8.7°F-22.6°C 55% 0.1 mph NW0.2 kmh NW 1.7 mph2.7 kmh 30.76 in1041.7 mb 0.00 in0.0 mm 0.00 in/hr0.0 mm/hr 0.00 in0.0 mm
01:50 AM 4.1°F-15.5°C -8.5°F-22.5°C 55% Calm Calm -- 30.75 in1041.3 mb 0.00 in0.0 mm 0.00 in/hr0.0 mm/hr 0.00 in0.0 mm
01:49 AM 4.1°F-15.5°C -8.5°F-22.5°C 55% Calm Calm -- 30.75 in1041.3 mb 0.00 in0.0 mm 0.00 in/hr0.0 mm/hr 0.00 in0.0 mm
01:48 AM 4.3°F-15.4°C -8.3°F-22.4°C 55% Calm Calm -- 30.75 in1041.3 mb 0.00 in0.0 mm 0.00 in/hr0.0 mm/hr 0.00 in0.0 mm
01:47 AM 4.5°F-15.3°C -8.2°F-22.3°C 55% Calm Calm -- 30.75 in1041.3 mb 0.00 in0.0 mm 0.00 in/hr0.0 mm/hr 0.00 in0.0 mm
01:46 AM 4.5°F-15.3°C -8.2°F-22.3°C 55% Calm Calm -- 30.75 in1041.3 mb 0.00 in0.0 mm 0.00 in/hr0.0 mm/hr 0.00 in0.0 mm
01:45 AM 4.5°F-15.3°C -8.2°F-22.3°C 55% Calm Calm -- 30.75 in1041.3 mb 0.00 in0.0 mm 0.00 in/hr0.0 mm/hr 0.00 in0.0 mm
01:44 AM 4.5°F-15.3°C -8.6°F-22.6°C 54% Calm Calm -- 30.75 in1041.3 mb 0.00 in0.0 mm 0.00 in/hr0.0 mm/hr 0.00 in0.0 mm
01:43 AM 4.3°F-15.4°C -8.7°F-22.6°C 54% Calm Calm -- 30.75 in1041.3 mb 0.00 in0.0 mm 0.00 in/hr0.0 mm/hr 0.00 in0.0 mm
01:42 AM 4.5°F-15.3°C -8.6°F-22.6°C 54% Calm Calm -- 30.75 in1041.3 mb 0.00 in0.0 mm 0.00 in/hr0.0 mm/hr 0.00 in0.0 mm
01:41 AM 4.3°F-15.4°C -8.7°F-22.6°C 54% Calm Calm -- 30.75 in1041.3 mb 0.00 in0.0 mm 0.00 in/hr0.0 mm/hr 0.00 in0.0 mm
01:40 AM 4.5°F-15.3°C -8.6°F-22.6°C 54% Calm Calm 0.9 mph1.4 kmh 30.74 in1041.0 mb 0.00 in0.0 mm 0.00 in/hr0.0 mm/hr 0.00 in0.0 mm
01:39 AM 4.5°F-15.3°C -8.6°F-22.6°C 54% 0.2 mph S0.3 kmh S 1.7 mph2.7 kmh 30.75 in1041.3 mb 0.00 in0.0 mm 0.00 in/hr0.0 mm/hr 0.00 in0.0 mm
01:38 AM 4.6°F-15.2°C -8.4°F-22.4°C 54% 0.4 mph S0.6 kmh S 1.7 mph2.7 kmh 30.74 in1041.0 mb 0.00 in0.0 mm 0.00 in/hr0.0 mm/hr 0.00 in0.0 mm
01:37 AM 4.6°F-15.2°C -8.4°F-22.4°C 54% 0.6 mph S1.0 kmh S 1.7 mph2.7 kmh 30.74 in1041.0 mb 0.00 in0.0 mm 0.00 in/hr0.0 mm/hr 0.00 in0.0 mm
01:36 AM 4.6°F-15.2°C -8.4°F-22.4°C 54% 0.8 mph S1.3 kmh S 1.7 mph2.7 kmh 30.75 in1041.3 mb 0.00 in0.0 mm 0.00 in/hr0.0 mm/hr 0.00 in0.0 mm
01:35 AM 4.8°F-15.1°C -8.2°F-22.3°C 54% 0.9 mph S1.4 kmh S 1.7 mph2.7 kmh 30.74 in1041.0 mb 0.00 in0.0 mm 0.00 in/hr0.0 mm/hr 0.00 in0.0 mm
01:34 AM 4.8°F-15.1°C -8.2°F-22.3°C 54% 1.0 mph S1.6 kmh S 1.7 mph2.7 kmh 30.74 in1041.0 mb 0.00 in0.0 mm 0.00 in/hr0.0 mm/hr 0.00 in0.0 mm
01:33 AM 5.0°F-15.0°C -8.4°F-22.4°C 53% 1.1 mph S1.8 kmh S 1.7 mph2.7 kmh 30.74 in1041.0 mb 0.00 in0.0 mm 0.00 in/hr0.0 mm/hr 0.00 in0.0 mm
01:32 AM 5.0°F-15.0°C -8.4°F-22.4°C 53% 1.1 mph S1.8 kmh S 1.7 mph2.7 kmh 30.74 in1041.0 mb 0.00 in0.0 mm 0.00 in/hr0.0 mm/hr 0.00 in0.0 mm
01:31 AM 4.8°F-15.1°C -8.2°F-22.3°C 54% 1.1 mph S1.8 kmh S 1.7 mph2.7 kmh 30.74 in1041.0 mb 0.00 in0.0 mm 0.00 in/hr0.0 mm/hr 0.00 in0.0 mm
01:30 AM 4.6°F-15.2°C -8.4°F-22.4°C 54% 1.0 mph S1.6 kmh S 1.7 mph2.7 kmh 30.74 in1041.0 mb 0.00 in0.0 mm 0.00 in/hr0.0 mm/hr 0.00 in0.0 mm
01:29 AM 5.0°F-15.0°C -8.4°F-22.4°C 53% 0.9 mph S1.4 kmh S 1.7 mph2.7 kmh 30.74 in1041.0 mb 0.00 in0.0 mm 0.00 in/hr0.0 mm/hr 0.00 in0.0 mm
01:28 AM 5.2°F-14.9°C -8.3°F-22.4°C 53% 0.7 mph S1.1 kmh S 1.7 mph2.7 kmh 30.74 in1041.0 mb 0.00 in0.0 mm 0.00 in/hr0.0 mm/hr 0.00 in0.0 mm
01:27 AM 5.2°F-14.9°C -8.3°F-22.4°C 53% 0.5 mph S0.8 kmh S 1.7 mph2.7 kmh 30.74 in1041.0 mb 0.00 in0.0 mm 0.00 in/hr0.0 mm/hr 0.00 in0.0 mm
01:26 AM 5.0°F-15.0°C -8.4°F-22.4°C 53% 0.3 mph S0.5 kmh S 1.7 mph2.7 kmh 30.74 in1041.0 mb 0.00 in0.0 mm 0.00 in/hr0.0 mm/hr 0.00 in0.0 mm
01:25 AM 5.0°F-15.0°C -8.4°F-22.4°C 53% 0.2 mph SSW0.3 kmh SSW 0.9 mph1.4 kmh 30.73 in1040.6 mb 0.00 in0.0 mm 0.00 in/hr0.0 mm/hr 0.00 in0.0 mm
01:24 AM 5.0°F-15.0°C -8.4°F-22.4°C 53% 0.1 mph S0.2 kmh S 0.9 mph1.4 kmh 30.73 in1040.6 mb 0.00 in0.0 mm 0.00 in/hr0.0 mm/hr 0.00 in0.0 mm
01:23 AM 5.2°F-14.9°C -8.3°F-22.4°C 53% Calm Calm -- 30.73 in1040.6 mb 0.00 in0.0 mm 0.00 in/hr0.0 mm/hr 0.00 in0.0 mm
01:22 AM 5.2°F-14.9°C -8.3°F-22.4°C 53% Calm Calm -- 30.74 in1041.0 mb 0.00 in0.0 mm 0.00 in/hr0.0 mm/hr 0.00 in0.0 mm
01:21 AM 5.2°F-14.9°C -8.3°F-22.4°C 53% Calm Calm -- 30.73 in1040.6 mb 0.00 in0.0 mm 0.00 in/hr0.0 mm/hr 0.00 in0.0 mm
01:20 AM 5.2°F-14.9°C -8.3°F-22.4°C 53% Calm Calm -- 30.73 in1040.6 mb 0.00 in0.0 mm 0.00 in/hr0.0 mm/hr 0.00 in0.0 mm
01:19 AM 5.2°F-14.9°C -8.3°F-22.4°C 53% Calm Calm -- 30.73 in1040.6 mb 0.00 in0.0 mm 0.00 in/hr0.0 mm/hr 0.00 in0.0 mm
01:18 AM 5.4°F-14.8°C -8.1°F-22.3°C 53% Calm Calm -- 30.73 in1040.6 mb 0.00 in0.0 mm 0.00 in/hr0.0 mm/hr 0.00 in0.0 mm
01:17 AM 5.4°F-14.8°C -8.1°F-22.3°C 53% Calm Calm -- 30.73 in1040.6 mb 0.00 in0.0 mm 0.00 in/hr0.0 mm/hr 0.00 in0.0 mm
01:16 AM 5.4°F-14.8°C -8.1°F-22.3°C 53% Calm Calm -- 30.73 in1040.6 mb 0.00 in0.0 mm 0.00 in/hr0.0 mm/hr 0.00 in0.0 mm
01:15 AM 5.5°F-14.7°C -7.9°F-22.2°C 53% Calm Calm -- 30.73 in1040.6 mb 0.00 in0.0 mm 0.00 in/hr0.0 mm/hr 0.00 in0.0 mm
01:14 AM 5.5°F-14.7°C -7.9°F-22.2°C 53% Calm Calm -- 30.73 in1040.6 mb 0.00 in0.0 mm 0.00 in/hr0.0 mm/hr 0.00 in0.0 mm
01:13 AM 6.1°F-14.4°C -7.4°F-21.9°C 53% Calm Calm -- 30.73 in1040.6 mb 0.00 in0.0 mm 0.00 in/hr0.0 mm/hr 0.00 in0.0 mm
01:12 AM 6.1°F-14.4°C -7.4°F-21.9°C 53% Calm Calm -- 30.73 in1040.6 mb 0.00 in0.0 mm 0.00 in/hr0.0 mm/hr 0.00 in0.0 mm
01:11 AM 5.9°F-14.5°C -7.6°F-22.0°C 53% Calm Calm -- 30.73 in1040.6 mb 0.00 in0.0 mm 0.00 in/hr0.0 mm/hr 0.00 in0.0 mm
01:10 AM 5.9°F-14.5°C -7.6°F-22.0°C 53% Calm Calm -- 30.73 in1040.6 mb 0.00 in0.0 mm 0.00 in/hr0.0 mm/hr 0.00 in0.0 mm
01:09 AM 5.9°F-14.5°C -7.6°F-22.0°C 53% Calm Calm -- 30.73 in1040.6 mb 0.00 in0.0 mm 0.00 in/hr0.0 mm/hr 0.00 in0.0 mm
01:08 AM 5.7°F-14.6°C -7.8°F-22.1°C 53% Calm Calm -- 30.73 in1040.6 mb 0.00 in0.0 mm 0.00 in/hr0.0 mm/hr 0.00 in0.0 mm
01:07 AM 5.7°F-14.6°C -8.1°F-22.3°C 52% Calm Calm -- 30.73 in1040.6 mb 0.00 in0.0 mm 0.00 in/hr0.0 mm/hr 0.00 in0.0 mm
01:06 AM 5.7°F-14.6°C -8.1°F-22.3°C 52% Calm Calm -- 30.73 in1040.6 mb 0.00 in0.0 mm 0.00 in/hr0.0 mm/hr 0.00 in0.0 mm
01:05 AM 5.7°F-14.6°C -8.1°F-22.3°C 52% Calm Calm -- 30.73 in1040.6 mb 0.00 in0.0 mm 0.00 in/hr0.0 mm/hr 0.00 in0.0 mm
01:04 AM 5.7°F-14.6°C -8.1°F-22.3°C 52% Calm Calm -- 30.74 in1041.0 mb 0.00 in0.0 mm 0.00 in/hr0.0 mm/hr 0.00 in0.0 mm
01:03 AM 5.7°F-14.6°C -8.1°F-22.3°C 52% Calm Calm -- 30.74 in1041.0 mb 0.00 in0.0 mm 0.00 in/hr0.0 mm/hr 0.00 in0.0 mm
01:02 AM 5.7°F-14.6°C -8.1°F-22.3°C 52% Calm Calm -- 30.74 in1041.0 mb 0.00 in0.0 mm 0.00 in/hr0.0 mm/hr 0.00 in0.0 mm
01:01 AM 5.7°F-14.6°C -8.1°F-22.3°C 52% Calm Calm -- 30.74 in1041.0 mb 0.00 in0.0 mm 0.00 in/hr0.0 mm/hr 0.00 in0.0 mm
01:00 AM 5.7°F-14.6°C -8.1°F-22.3°C 52% Calm Calm -- 30.74 in1041.0 mb 0.00 in0.0 mm 0.00 in/hr0.0 mm/hr 0.00 in0.0 mm
12:59 AM 5.5°F-14.7°C -8.3°F-22.4°C 52% Calm Calm -- 30.74 in1041.0 mb 0.00 in0.0 mm 0.00 in/hr0.0 mm/hr 0.00 in0.0 mm
12:58 AM 5.7°F-14.6°C -8.1°F-22.3°C 52% Calm Calm -- 30.74 in1041.0 mb 0.00 in0.0 mm 0.00 in/hr0.0 mm/hr 0.00 in0.0 mm
12:57 AM 5.5°F-14.7°C -8.3°F-22.4°C 52% Calm Calm -- 30.74 in1041.0 mb 0.00 in0.0 mm 0.00 in/hr0.0 mm/hr 0.00 in0.0 mm
12:56 AM 5.5°F-14.7°C -8.3°F-22.4°C 52% Calm Calm -- 30.75 in1041.3 mb 0.00 in0.0 mm 0.00 in/hr0.0 mm/hr 0.00 in0.0 mm
12:55 AM 5.5°F-14.7°C -8.3°F-22.4°C 52% Calm Calm -- 30.74 in1041.0 mb 0.00 in0.0 mm 0.00 in/hr0.0 mm/hr 0.00 in0.0 mm
12:54 AM 5.7°F-14.6°C -8.1°F-22.3°C 52% Calm Calm -- 30.75 in1041.3 mb 0.00 in0.0 mm 0.00 in/hr0.0 mm/hr 0.00 in0.0 mm
12:53 AM 5.9°F-14.5°C -8.0°F-22.2°C 52% Calm Calm -- 30.74 in1041.0 mb 0.00 in0.0 mm 0.00 in/hr0.0 mm/hr 0.00 in0.0 mm
12:52 AM 6.1°F-14.4°C -7.8°F-22.1°C 52% Calm Calm -- 30.75 in1041.3 mb 0.00 in0.0 mm 0.00 in/hr0.0 mm/hr 0.00 in0.0 mm
12:51 AM 6.3°F-14.3°C -7.6°F-22.0°C 52% Calm Calm -- 30.75 in1041.3 mb 0.00 in0.0 mm 0.00 in/hr0.0 mm/hr 0.00 in0.0 mm
12:50 AM 6.4°F-14.2°C -7.5°F-21.9°C 52% Calm Calm -- 30.75 in1041.3 mb 0.00 in0.0 mm 0.00 in/hr0.0 mm/hr 0.00 in0.0 mm
12:49 AM 6.6°F-14.1°C -7.3°F-21.8°C 52% Calm Calm -- 30.75 in1041.3 mb 0.00 in0.0 mm 0.00 in/hr0.0 mm/hr 0.00 in0.0 mm
12:48 AM 6.6°F-14.1°C -7.3°F-21.8°C 52% Calm Calm -- 30.75 in1041.3 mb 0.00 in0.0 mm 0.00 in/hr0.0 mm/hr 0.00 in0.0 mm
12:47 AM 6.6°F-14.1°C -7.3°F-21.8°C 52% Calm Calm -- 30.75 in1041.3 mb 0.00 in0.0 mm 0.00 in/hr0.0 mm/hr 0.00 in0.0 mm
12:46 AM 6.6°F-14.1°C -7.3°F-21.8°C 52% Calm Calm -- 30.75 in1041.3 mb 0.00 in0.0 mm 0.00 in/hr0.0 mm/hr 0.00 in0.0 mm
12:45 AM 6.6°F-14.1°C -7.3°F-21.8°C 52% Calm Calm -- 30.75 in1041.3 mb 0.00 in0.0 mm 0.00 in/hr0.0 mm/hr 0.00 in0.0 mm
12:44 AM 6.6°F-14.1°C -7.7°F-22.1°C 51% Calm Calm -- 30.75 in1041.3 mb 0.00 in0.0 mm 0.00 in/hr0.0 mm/hr 0.00 in0.0 mm
12:43 AM 6.6°F-14.1°C -7.7°F-22.1°C 51% Calm Calm -- 30.75 in1041.3 mb 0.00 in0.0 mm 0.00 in/hr0.0 mm/hr 0.00 in0.0 mm
12:42 AM 6.6°F-14.1°C -7.7°F-22.1°C 51% Calm Calm -- 30.75 in1041.3 mb 0.00 in0.0 mm 0.00 in/hr0.0 mm/hr 0.00 in0.0 mm
12:41 AM 6.4°F-14.2°C -7.9°F-22.2°C 51% Calm Calm 0.9 mph1.4 kmh 30.75 in1041.3 mb 0.00 in0.0 mm 0.00 in/hr0.0 mm/hr 0.00 in0.0 mm
12:40 AM 6.4°F-14.2°C -7.9°F-22.2°C 51% 0.1 mph S0.2 kmh S 1.7 mph2.7 kmh 30.75 in1041.3 mb 0.00 in0.0 mm 0.00 in/hr0.0 mm/hr 0.00 in0.0 mm
12:39 AM 6.4°F-14.2°C -7.9°F-22.2°C 51% 0.3 mph S0.5 kmh S 1.7 mph2.7 kmh 30.75 in1041.3 mb 0.00 in0.0 mm 0.00 in/hr0.0 mm/hr 0.00 in0.0 mm
12:38 AM 6.6°F-14.1°C -7.7°F-22.1°C 51% 0.3 mph S0.5 kmh S 1.7 mph2.7 kmh 30.75 in1041.3 mb 0.00 in0.0 mm 0.00 in/hr0.0 mm/hr 0.00 in0.0 mm
12:37 AM 6.8°F-14.0°C -7.9°F-22.2°C 50% 0.4 mph S0.6 kmh S 1.7 mph2.7 kmh 30.75 in1041.3 mb 0.00 in0.0 mm 0.00 in/hr0.0 mm/hr 0.00 in0.0 mm
12:36 AM 7.0°F-13.9°C -7.8°F-22.1°C 50% 0.5 mph S0.8 kmh S 1.7 mph2.7 kmh 30.75 in1041.3 mb 0.00 in0.0 mm 0.00 in/hr0.0 mm/hr 0.00 in0.0 mm
12:35 AM 7.2°F-13.8°C -7.6°F-22.0°C 50% 0.5 mph SSW0.8 kmh SSW 1.7 mph2.7 kmh 30.75 in1041.3 mb 0.00 in0.0 mm 0.00 in/hr0.0 mm/hr 0.00 in0.0 mm
12:34 AM 7.2°F-13.8°C -7.6°F-22.0°C 50% 0.5 mph SSW0.8 kmh SSW 1.7 mph2.7 kmh 30.75 in1041.3 mb 0.00 in0.0 mm 0.00 in/hr0.0 mm/hr 0.00 in0.0 mm
12:33 AM 7.2°F-13.8°C -7.6°F-22.0°C 50% 0.5 mph SSW0.8 kmh SSW 1.7 mph2.7 kmh 30.75 in1041.3 mb 0.00 in0.0 mm 0.00 in/hr0.0 mm/hr 0.00 in0.0 mm
12:32 AM 7.3°F-13.7°C -7.4°F-21.9°C 50% 0.5 mph SSW0.8 kmh SSW 1.7 mph2.7 kmh 30.75 in1041.3 mb 0.00 in0.0 mm 0.00 in/hr0.0 mm/hr 0.00 in0.0 mm
12:31 AM 7.3°F-13.7°C -7.4°F-21.9°C 50% 0.5 mph SSW0.8 kmh SSW 1.7 mph2.7 kmh 30.75 in1041.3 mb 0.00 in0.0 mm 0.00 in/hr0.0 mm/hr 0.00 in0.0 mm
12:30 AM 7.7°F-13.5°C -7.1°F-21.7°C 50% 0.4 mph SW0.6 kmh SW 1.7 mph2.7 kmh 30.75 in1041.3 mb 0.00 in0.0 mm 0.00 in/hr0.0 mm/hr 0.00 in0.0 mm
12:29 AM 7.5°F-13.6°C -7.3°F-21.8°C 50% 0.2 mph NNW0.3 kmh NNW 1.7 mph2.7 kmh 30.75 in1041.3 mb 0.00 in0.0 mm 0.00 in/hr0.0 mm/hr 0.00 in0.0 mm
12:28 AM 7.5°F-13.6°C -7.7°F-22.1°C 49% 0.2 mph NNW0.3 kmh NNW 1.7 mph2.7 kmh 30.74 in1041.0 mb 0.00 in0.0 mm 0.00 in/hr0.0 mm/hr 0.00 in0.0 mm
12:27 AM 7.3°F-13.7°C -7.9°F-22.2°C 49% 0.2 mph NNW0.3 kmh NNW 1.7 mph2.7 kmh 30.75 in1041.3 mb 0.00 in0.0 mm 0.00 in/hr0.0 mm/hr 0.00 in0.0 mm
12:26 AM 7.0°F-13.9°C -8.2°F-22.3°C 49% Calm Calm 1.7 mph2.7 kmh 30.75 in1041.3 mb 0.00 in0.0 mm 0.00 in/hr0.0 mm/hr 0.00 in0.0 mm
12:25 AM 7.0°F-13.9°C -8.2°F-22.3°C 49% Calm Calm -- 30.75 in1041.3 mb 0.00 in0.0 mm 0.00 in/hr0.0 mm/hr 0.00 in0.0 mm
12:24 AM 7.0°F-13.9°C -8.2°F-22.3°C 49% Calm Calm -- 30.75 in1041.3 mb 0.00 in0.0 mm 0.00 in/hr0.0 mm/hr 0.00 in0.0 mm
12:23 AM 7.0°F-13.9°C -8.2°F-22.3°C 49% Calm Calm -- 30.75 in1041.3 mb 0.00 in0.0 mm 0.00 in/hr0.0 mm/hr 0.00 in0.0 mm
12:22 AM 7.2°F-13.8°C -8.0°F-22.2°C 49% Calm Calm -- 30.74 in1041.0 mb 0.00 in0.0 mm 0.00 in/hr0.0 mm/hr 0.00 in0.0 mm
12:21 AM 7.3°F-13.7°C -7.9°F-22.2°C 49% 0.1 mph N0.2 kmh N 0.9 mph1.4 kmh 30.75 in1041.3 mb 0.00 in0.0 mm 0.00 in/hr0.0 mm/hr 0.00 in0.0 mm
12:20 AM 7.3°F-13.7°C -7.9°F-22.2°C 49% 0.1 mph N0.2 kmh N 0.9 mph1.4 kmh 30.75 in1041.3 mb 0.00 in0.0 mm 0.00 in/hr0.0 mm/hr 0.00 in0.0 mm
12:19 AM 7.3°F-13.7°C -7.9°F-22.2°C 49% 0.1 mph N0.2 kmh N 0.9 mph1.4 kmh 30.75 in1041.3 mb 0.00 in0.0 mm 0.00 in/hr0.0 mm/hr 0.00 in0.0 mm
12:18 AM 7.3°F-13.7°C -7.9°F-22.2°C 49% 0.1 mph N0.2 kmh N 0.9 mph1.4 kmh 30.75 in1041.3 mb 0.00 in0.0 mm 0.00 in/hr0.0 mm/hr 0.00 in0.0 mm
12:17 AM 7.5°F-13.6°C -7.7°F-22.1°C 49% 0.1 mph N0.2 kmh N 0.9 mph1.4 kmh 30.75 in1041.3 mb 0.00 in0.0 mm 0.00 in/hr0.0 mm/hr 0.00 in0.0 mm
12:16 AM 7.7°F-13.5°C -7.5°F-21.9°C 49% 0.1 mph N0.2 kmh N 0.9 mph1.4 kmh 30.74 in1041.0 mb 0.00 in0.0 mm 0.00 in/hr0.0 mm/hr 0.00 in0.0 mm
12:15 AM 7.9°F-13.4°C -7.4°F-21.9°C 49% 0.1 mph N0.2 kmh N 0.9 mph1.4 kmh 30.74 in1041.0 mb 0.00 in0.0 mm 0.00 in/hr0.0 mm/hr 0.00 in0.0 mm
12:14 AM 7.9°F-13.4°C -7.4°F-21.9°C 49% 0.1 mph N0.2 kmh N 0.9 mph1.4 kmh 30.74 in1041.0 mb 0.00 in0.0 mm 0.00 in/hr0.0 mm/hr 0.00 in0.0 mm
12:13 AM 8.2°F-13.2°C -7.0°F-21.7°C 49% 0.4 mph WNW0.6 kmh WNW 2.6 mph4.2 kmh 30.74 in1041.0 mb 0.00 in0.0 mm 0.00 in/hr0.0 mm/hr 0.00 in0.0 mm
12:12 AM 8.2°F-13.2°C -7.0°F-21.7°C 49% 0.6 mph WSW1.0 kmh WSW 2.6 mph4.2 kmh 30.74 in1041.0 mb 0.00 in0.0 mm 0.00 in/hr0.0 mm/hr 0.00 in0.0 mm
12:11 AM 8.2°F-13.2°C -7.0°F-21.7°C 49% 0.8 mph SW1.3 kmh SW 2.6 mph4.2 kmh 30.74 in1041.0 mb 0.00 in0.0 mm 0.00 in/hr0.0 mm/hr 0.00 in0.0 mm
12:10 AM 8.1°F-13.3°C -7.2°F-21.8°C 49% 0.8 mph SW1.3 kmh SW 2.6 mph4.2 kmh 30.74 in1041.0 mb 0.00 in0.0 mm 0.00 in/hr0.0 mm/hr 0.00 in0.0 mm
12:09 AM 7.9°F-13.4°C -7.4°F-21.9°C 49% 0.8 mph SW1.3 kmh SW 2.6 mph4.2 kmh 30.74 in1041.0 mb 0.00 in0.0 mm 0.00 in/hr0.0 mm/hr 0.00 in0.0 mm
12:08 AM 7.9°F-13.4°C -7.4°F-21.9°C 49% 0.8 mph SW1.3 kmh SW 2.6 mph4.2 kmh 30.74 in1041.0 mb 0.00 in0.0 mm 0.00 in/hr0.0 mm/hr 0.00 in0.0 mm
12:07 AM 7.9°F-13.4°C -7.4°F-21.9°C 49% 0.8 mph SW1.3 kmh SW 2.6 mph4.2 kmh 30.74 in1041.0 mb 0.00 in0.0 mm 0.00 in/hr0.0 mm/hr 0.00 in0.0 mm
12:06 AM 7.7°F-13.5°C -7.5°F-21.9°C 49% 0.8 mph SW1.3 kmh SW 2.6 mph4.2 kmh 30.74 in1041.0 mb 0.00 in0.0 mm 0.00 in/hr0.0 mm/hr 0.00 in0.0 mm
12:05 AM 7.7°F-13.5°C -7.5°F-21.9°C 49% 0.8 mph SW1.3 kmh SW 2.6 mph4.2 kmh 30.74 in1041.0 mb 0.00 in0.0 mm 0.00 in/hr0.0 mm/hr 0.00 in0.0 mm
12:04 AM 7.5°F-13.6°C -7.7°F-22.1°C 49% 0.8 mph SW1.3 kmh SW 2.6 mph4.2 kmh 30.74 in1041.0 mb 0.00 in0.0 mm 0.00 in/hr0.0 mm/hr 0.00 in0.0 mm
12:03 AM 7.9°F-13.4°C -7.4°F-21.9°C 49% 0.5 mph SSW0.8 kmh SSW 2.6 mph4.2 kmh 30.75 in1041.3 mb 0.00 in0.0 mm 0.00 in/hr0.0 mm/hr 0.00 in0.0 mm
12:02 AM 7.9°F-13.4°C -7.4°F-21.9°C 49% 0.4 mph S0.6 kmh S 2.6 mph4.2 kmh 30.75 in1041.3 mb 0.00 in0.0 mm 0.00 in/hr0.0 mm/hr 0.00 in0.0 mm
12:01 AM 7.5°F-13.6°C -8.1°F-22.3°C 48% 0.3 mph N0.5 kmh N 1.7 mph2.7 kmh 30.74 in1041.0 mb 0.00 in0.0 mm 0.00 in/hr0.0 mm/hr 0.00 in0.0 mm
12:00 AM 7.5°F-13.6°C -8.1°F-22.3°C 48% 0.3 mph N0.5 kmh N 1.7 mph2.7 kmh 30.74 in1041.0 mb 0.00 in0.0 mm 0.00 in/hr0.0 mm/hr 0.00 in0.0 mm